
<gpx xmlns="http://www.topografix.com/GPX/1/1" xmlns:gpxx="http://www.garmin.com/xmlschemas/GpxExtensions/v3" xmlns:xsi="http://www.w3.org/2001/XMLSchema-instance" version="1.1" creator="Adze - https://getadze.com/" xsi:schemaLocation="http://www.topografix.com/GPX/1/1 http://www.topografix.com/GPX/1/1/gpx.xsd http://www.garmin.com/xmlschemas/GpxExtensions/v3 http://www8.garmin.com/xmlschemas/GpxExtensionsv3.xsd">
    <metadata>
        <name>Untitled Document</name>
        <link href="http://www.garmin.com"></link>
        <time>2018-03-05T02:42:20.093Z</time>
    </metadata>
    <trk>
        <name>October 2004 - Saturday</name>
        <extensions>
            <gpxx:TrackExtension>
                <gpxx:DisplayColor>DarkGray</gpxx:DisplayColor>
            </gpxx:TrackExtension>
        </extensions>
        <trkseg>
            <trkpt lon="100.993924" lat="12.917969">
                <ele>107.805054</ele>
                <time>2004-10-30T06:27:27Z</time>
            </trkpt>
            <trkpt lon="100.993903" lat="12.918055">
                <ele>101.556396</ele>
                <time>2004-10-30T06:28:16Z</time>
            </trkpt>
            <trkpt lon="100.993903" lat="12.918055">
                <ele>101.556396</ele>
                <time>2004-10-30T06:30:31Z</time>
            </trkpt>
            <trkpt lon="100.993774" lat="12.917948">
                <ele>92.904541</ele>
                <time>2004-10-30T06:30:59Z</time>
            </trkpt>
            <trkpt lon="100.993731" lat="12.917905">
                <ele>89.539917</ele>
                <time>2004-10-30T06:31:26Z</time>
            </trkpt>
            <trkpt lon="100.993774" lat="12.918055">
                <ele>83.291382</ele>
                <time>2004-10-30T06:35:20Z</time>
            </trkpt>
            <trkpt lon="100.994074" lat="12.918291">
                <ele>83.291382</ele>
                <time>2004-10-30T06:35:32Z</time>
            </trkpt>
            <trkpt lon="100.994654" lat="12.918162">
                <ele>83.771973</ele>
                <time>2004-10-30T06:35:48Z</time>
            </trkpt>
            <trkpt lon="100.995061" lat="12.918098">
                <ele>84.252686</ele>
                <time>2004-10-30T06:35:58Z</time>
            </trkpt>
            <trkpt lon="100.995061" lat="12.918334">
                <ele>86.656006</ele>
                <time>2004-10-30T06:36:06Z</time>
            </trkpt>
            <trkpt lon="100.994933" lat="12.918398">
                <ele>86.656006</ele>
                <time>2004-10-30T06:36:10Z</time>
            </trkpt>
            <trkpt lon="100.994203" lat="12.918570">
                <ele>89.059326</ele>
                <time>2004-10-30T06:36:28Z</time>
            </trkpt>
            <trkpt lon="100.993452" lat="12.918570">
                <ele>89.059326</ele>
                <time>2004-10-30T06:36:46Z</time>
            </trkpt>
            <trkpt lon="100.992658" lat="12.918227">
                <ele>89.539917</ele>
                <time>2004-10-30T06:37:05Z</time>
            </trkpt>
            <trkpt lon="100.991671" lat="12.917733">
                <ele>89.059326</ele>
                <time>2004-10-30T06:37:27Z</time>
            </trkpt>
            <trkpt lon="100.990620" lat="12.917197">
                <ele>88.578735</ele>
                <time>2004-10-30T06:37:48Z</time>
            </trkpt>
            <trkpt lon="100.989375" lat="12.916639">
                <ele>86.656006</ele>
                <time>2004-10-30T06:38:11Z</time>
            </trkpt>
            <trkpt lon="100.989268" lat="12.916596">
                <ele>86.175293</ele>
                <time>2004-10-30T06:38:13Z</time>
            </trkpt>
            <trkpt lon="100.989075" lat="12.916660">
                <ele>85.694580</ele>
                <time>2004-10-30T06:38:17Z</time>
            </trkpt>
            <trkpt lon="100.988302" lat="12.917562">
                <ele>88.578735</ele>
                <time>2004-10-30T06:38:43Z</time>
            </trkpt>
            <trkpt lon="100.987916" lat="12.918162">
                <ele>87.136597</ele>
                <time>2004-10-30T06:39:03Z</time>
            </trkpt>
            <trkpt lon="100.987723" lat="12.918141">
                <ele>88.578735</ele>
                <time>2004-10-30T06:39:10Z</time>
            </trkpt>
            <trkpt lon="100.987422" lat="12.917905">
                <ele>91.462524</ele>
                <time>2004-10-30T06:39:25Z</time>
            </trkpt>
            <trkpt lon="100.986907" lat="12.917776">
                <ele>93.385132</ele>
                <time>2004-10-30T06:39:45Z</time>
            </trkpt>
            <trkpt lon="100.986242" lat="12.917712">
                <ele>95.788452</ele>
                <time>2004-10-30T06:40:12Z</time>
            </trkpt>
            <trkpt lon="100.985663" lat="12.917755">
                <ele>99.633789</ele>
                <time>2004-10-30T06:40:40Z</time>
            </trkpt>
            <trkpt lon="100.985277" lat="12.917733">
                <ele>107.324341</ele>
                <time>2004-10-30T06:41:06Z</time>
            </trkpt>
            <trkpt lon="100.984955" lat="12.917647">
                <ele>112.130981</ele>
                <time>2004-10-30T06:41:30Z</time>
            </trkpt>
            <trkpt lon="100.984526" lat="12.917562">
                <ele>114.534180</ele>
                <time>2004-10-30T06:41:54Z</time>
            </trkpt>
            <trkpt lon="100.984290" lat="12.917540">
                <ele>119.340820</ele>
                <time>2004-10-30T06:42:11Z</time>
            </trkpt>
            <trkpt lon="100.984097" lat="12.917583">
                <ele>120.782837</ele>
                <time>2004-10-30T06:42:21Z</time>
            </trkpt>
            <trkpt lon="100.983989" lat="12.917497">
                <ele>122.705444</ele>
                <time>2004-10-30T06:42:39Z</time>
            </trkpt>
            <trkpt lon="100.984011" lat="12.917454">
                <ele>124.147339</ele>
                <time>2004-10-30T06:43:06Z</time>
            </trkpt>
            <trkpt lon="100.984032" lat="12.917433">
                <ele>126.069946</ele>
                <time>2004-10-30T06:43:27Z</time>
            </trkpt>
            <trkpt lon="100.984054" lat="12.917454">
                <ele>129.434692</ele>
                <time>2004-10-30T06:48:45Z</time>
            </trkpt>
            <trkpt lon="100.984354" lat="12.917519">
                <ele>128.954102</ele>
                <time>2004-10-30T06:49:06Z</time>
            </trkpt>
            <trkpt lon="100.984654" lat="12.917604">
                <ele>127.031372</ele>
                <time>2004-10-30T06:49:20Z</time>
            </trkpt>
            <trkpt lon="100.985255" lat="12.917755">
                <ele>124.147339</ele>
                <time>2004-10-30T06:49:37Z</time>
            </trkpt>
            <trkpt lon="100.986221" lat="12.917755">
                <ele>118.860107</ele>
                <time>2004-10-30T06:49:57Z</time>
            </trkpt>
            <trkpt lon="100.987186" lat="12.917776">
                <ele>116.456787</ele>
                <time>2004-10-30T06:50:16Z</time>
            </trkpt>
            <trkpt lon="100.987616" lat="12.917969">
                <ele>112.130981</ele>
                <time>2004-10-30T06:50:23Z</time>
            </trkpt>
            <trkpt lon="100.987809" lat="12.918227">
                <ele>107.805054</ele>
                <time>2004-10-30T06:50:28Z</time>
            </trkpt>
            <trkpt lon="100.987852" lat="12.918355">
                <ele>107.324341</ele>
                <time>2004-10-30T06:50:30Z</time>
            </trkpt>
            <trkpt lon="100.987809" lat="12.919621">
                <ele>95.307739</ele>
                <time>2004-10-30T06:50:47Z</time>
            </trkpt>
            <trkpt lon="100.987701" lat="12.921574">
                <ele>82.810791</ele>
                <time>2004-10-30T06:51:10Z</time>
            </trkpt>
            <trkpt lon="100.987380" lat="12.922754">
                <ele>77.042847</ele>
                <time>2004-10-30T06:51:23Z</time>
            </trkpt>
            <trkpt lon="100.987315" lat="12.922904">
                <ele>76.562134</ele>
                <time>2004-10-30T06:51:25Z</time>
            </trkpt>
            <trkpt lon="100.986500" lat="12.923677">
                <ele>73.678223</ele>
                <time>2004-10-30T06:51:38Z</time>
            </trkpt>
            <trkpt lon="100.985341" lat="12.924106">
                <ele>71.755493</ele>
                <time>2004-10-30T06:51:53Z</time>
            </trkpt>
            <trkpt lon="100.984440" lat="12.924042">
                <ele>71.755493</ele>
                <time>2004-10-30T06:52:06Z</time>
            </trkpt>
            <trkpt lon="100.984139" lat="12.923956">
                <ele>72.236206</ele>
                <time>2004-10-30T06:52:19Z</time>
            </trkpt>
            <trkpt lon="100.984097" lat="12.923934">
                <ele>73.197632</ele>
                <time>2004-10-30T06:52:36Z</time>
            </trkpt>
            <trkpt lon="100.984075" lat="12.923934">
                <ele>73.197632</ele>
                <time>2004-10-30T06:52:37Z</time>
            </trkpt>
            <trkpt lon="100.984139" lat="12.923999">
                <ele>72.716919</ele>
                <time>2004-10-30T06:52:43Z</time>
            </trkpt>
            <trkpt lon="100.984676" lat="12.924128">
                <ele>72.236206</ele>
                <time>2004-10-30T06:53:00Z</time>
            </trkpt>
            <trkpt lon="100.984998" lat="12.924170">
                <ele>71.755493</ele>
                <time>2004-10-30T06:53:13Z</time>
            </trkpt>
            <trkpt lon="100.984998" lat="12.924149">
                <ele>72.236206</ele>
                <time>2004-10-30T06:53:29Z</time>
            </trkpt>
            <trkpt lon="100.984826" lat="12.924106">
                <ele>71.755493</ele>
                <time>2004-10-30T06:53:40Z</time>
            </trkpt>
            <trkpt lon="100.984461" lat="12.924042">
                <ele>72.236206</ele>
                <time>2004-10-30T06:53:57Z</time>
            </trkpt>
            <trkpt lon="100.983667" lat="12.923741">
                <ele>72.236206</ele>
                <time>2004-10-30T06:54:14Z</time>
            </trkpt>
            <trkpt lon="100.982916" lat="12.923055">
                <ele>72.716919</ele>
                <time>2004-10-30T06:54:32Z</time>
            </trkpt>
            <trkpt lon="100.982380" lat="12.922196">
                <ele>71.755493</ele>
                <time>2004-10-30T06:54:50Z</time>
            </trkpt>
            <trkpt lon="100.982251" lat="12.922003">
                <ele>70.313477</ele>
                <time>2004-10-30T06:55:00Z</time>
            </trkpt>
            <trkpt lon="100.981994" lat="12.921553">
                <ele>70.794189</ele>
                <time>2004-10-30T06:55:14Z</time>
            </trkpt>
            <trkpt lon="100.981479" lat="12.920651">
                <ele>74.639526</ele>
                <time>2004-10-30T06:55:37Z</time>
            </trkpt>
            <trkpt lon="100.981264" lat="12.920308">
                <ele>75.120239</ele>
                <time>2004-10-30T06:55:49Z</time>
            </trkpt>
            <trkpt lon="100.980878" lat="12.919643">
                <ele>75.120239</ele>
                <time>2004-10-30T06:56:08Z</time>
            </trkpt>
            <trkpt lon="100.981007" lat="12.919922">
                <ele>76.081421</ele>
                <time>2004-10-30T06:56:20Z</time>
            </trkpt>
            <trkpt lon="100.981500" lat="12.920780">
                <ele>76.562134</ele>
                <time>2004-10-30T06:56:40Z</time>
            </trkpt>
            <trkpt lon="100.981522" lat="12.920823">
                <ele>75.600830</ele>
                <time>2004-10-30T06:56:41Z</time>
            </trkpt>
            <trkpt lon="100.982080" lat="12.921789">
                <ele>74.158813</ele>
                <time>2004-10-30T06:57:02Z</time>
            </trkpt>
            <trkpt lon="100.982251" lat="12.922068">
                <ele>73.678223</ele>
                <time>2004-10-30T06:57:10Z</time>
            </trkpt>
            <trkpt lon="100.982208" lat="12.922132">
                <ele>73.678223</ele>
                <time>2004-10-30T06:57:14Z</time>
            </trkpt>
            <trkpt lon="100.982230" lat="12.922304">
                <ele>74.158813</ele>
                <time>2004-10-30T06:57:20Z</time>
            </trkpt>
            <trkpt lon="100.982230" lat="12.922497">
                <ele>74.639526</ele>
                <time>2004-10-30T06:57:26Z</time>
            </trkpt>
            <trkpt lon="100.982187" lat="12.922540">
                <ele>72.236206</ele>
                <time>2004-10-30T06:57:39Z</time>
            </trkpt>
            <trkpt lon="100.982165" lat="12.922540">
                <ele>71.755493</ele>
                <time>2004-10-30T06:58:02Z</time>
            </trkpt>
            <trkpt lon="100.982165" lat="12.922540">
                <ele>71.274902</ele>
                <time>2004-10-30T06:58:03Z</time>
            </trkpt>
            <trkpt lon="100.982187" lat="12.922454">
                <ele>70.313477</ele>
                <time>2004-10-30T06:58:09Z</time>
            </trkpt>
            <trkpt lon="100.982187" lat="12.922218">
                <ele>69.352295</ele>
                <time>2004-10-30T06:58:26Z</time>
            </trkpt>
            <trkpt lon="100.982187" lat="12.922111">
                <ele>74.158813</ele>
                <time>2004-10-30T06:58:42Z</time>
            </trkpt>
            <trkpt lon="100.982187" lat="12.922111">
                <ele>71.755493</ele>
                <time>2004-10-30T06:59:14Z</time>
            </trkpt>
            <trkpt lon="100.982144" lat="12.922132">
                <ele>70.313477</ele>
                <time>2004-10-30T06:59:18Z</time>
            </trkpt>
            <trkpt lon="100.982187" lat="12.922325">
                <ele>69.832886</ele>
                <time>2004-10-30T06:59:34Z</time>
            </trkpt>
            <trkpt lon="100.982165" lat="12.922518">
                <ele>71.274902</ele>
                <time>2004-10-30T06:59:45Z</time>
            </trkpt>
            <trkpt lon="100.981929" lat="12.922540">
                <ele>71.274902</ele>
                <time>2004-10-30T06:59:57Z</time>
            </trkpt>
            <trkpt lon="100.981908" lat="12.922668">
                <ele>69.832886</ele>
                <time>2004-10-30T07:00:02Z</time>
            </trkpt>
            <trkpt lon="100.981886" lat="12.923055">
                <ele>67.910278</ele>
                <time>2004-10-30T07:00:18Z</time>
            </trkpt>
            <trkpt lon="100.981801" lat="12.923334">
                <ele>67.429688</ele>
                <time>2004-10-30T07:00:33Z</time>
            </trkpt>
            <trkpt lon="100.981843" lat="12.923741">
                <ele>67.429688</ele>
                <time>2004-10-30T07:00:47Z</time>
            </trkpt>
            <trkpt lon="100.982015" lat="12.924063">
                <ele>66.468262</ele>
                <time>2004-10-30T07:01:00Z</time>
            </trkpt>
            <trkpt lon="100.982122" lat="12.924364">
                <ele>66.468262</ele>
                <time>2004-10-30T07:01:12Z</time>
            </trkpt>
            <trkpt lon="100.982230" lat="12.924685">
                <ele>65.987671</ele>
                <time>2004-10-30T07:01:23Z</time>
            </trkpt>
            <trkpt lon="100.982594" lat="12.925050">
                <ele>67.429688</ele>
                <time>2004-10-30T07:01:39Z</time>
            </trkpt>
            <trkpt lon="100.982831" lat="12.925265">
                <ele>68.390869</ele>
                <time>2004-10-30T07:01:50Z</time>
            </trkpt>
            <trkpt lon="100.982702" lat="12.925372">
                <ele>66.948975</ele>
                <time>2004-10-30T07:01:56Z</time>
            </trkpt>
            <trkpt lon="100.982680" lat="12.925501">
                <ele>66.468262</ele>
                <time>2004-10-30T07:02:02Z</time>
            </trkpt>
            <trkpt lon="100.982745" lat="12.925930">
                <ele>68.390869</ele>
                <time>2004-10-30T07:02:19Z</time>
            </trkpt>
            <trkpt lon="100.982852" lat="12.926466">
                <ele>68.871582</ele>
                <time>2004-10-30T07:02:39Z</time>
            </trkpt>
            <trkpt lon="100.982873" lat="12.926853">
                <ele>67.910278</ele>
                <time>2004-10-30T07:02:52Z</time>
            </trkpt>
            <trkpt lon="100.982873" lat="12.926896">
                <ele>67.429688</ele>
                <time>2004-10-30T07:02:54Z</time>
            </trkpt>
            <trkpt lon="100.983024" lat="12.927003">
                <ele>68.390869</ele>
                <time>2004-10-30T07:03:06Z</time>
            </trkpt>
            <trkpt lon="100.983088" lat="12.927196">
                <ele>69.352295</ele>
                <time>2004-10-30T07:03:22Z</time>
            </trkpt>
            <trkpt lon="100.983088" lat="12.927260">
                <ele>68.871582</ele>
                <time>2004-10-30T07:03:36Z</time>
            </trkpt>
            <trkpt lon="100.983088" lat="12.927346">
                <ele>68.390869</ele>
                <time>2004-10-30T07:03:50Z</time>
            </trkpt>
            <trkpt lon="100.983067" lat="12.927411">
                <ele>66.468262</ele>
                <time>2004-10-30T07:04:09Z</time>
            </trkpt>
            <trkpt lon="100.983067" lat="12.927454">
                <ele>65.987671</ele>
                <time>2004-10-30T07:04:24Z</time>
            </trkpt>
            <trkpt lon="100.983067" lat="12.927475">
                <ele>64.545654</ele>
                <time>2004-10-30T07:04:46Z</time>
            </trkpt>
            <trkpt lon="100.983067" lat="12.927518">
                <ele>62.142334</ele>
                <time>2004-10-30T07:05:14Z</time>
            </trkpt>
            <trkpt lon="100.983045" lat="12.927604">
                <ele>63.103638</ele>
                <time>2004-10-30T07:05:22Z</time>
            </trkpt>
            <trkpt lon="100.983067" lat="12.927732">
                <ele>64.545654</ele>
                <time>2004-10-30T07:05:34Z</time>
            </trkpt>
            <trkpt lon="100.983109" lat="12.927904">
                <ele>66.468262</ele>
                <time>2004-10-30T07:05:47Z</time>
            </trkpt>
            <trkpt lon="100.983152" lat="12.928076">
                <ele>67.429688</ele>
                <time>2004-10-30T07:06:00Z</time>
            </trkpt>
            <trkpt lon="100.983367" lat="12.928548">
                <ele>70.313477</ele>
                <time>2004-10-30T07:06:21Z</time>
            </trkpt>
            <trkpt lon="100.983496" lat="12.928998">
                <ele>72.716919</ele>
                <time>2004-10-30T07:06:40Z</time>
            </trkpt>
            <trkpt lon="100.983796" lat="12.929385">
                <ele>71.274902</ele>
                <time>2004-10-30T07:06:55Z</time>
            </trkpt>
            <trkpt lon="100.984311" lat="12.929728">
                <ele>71.274902</ele>
                <time>2004-10-30T07:07:09Z</time>
            </trkpt>
            <trkpt lon="100.984740" lat="12.930050">
                <ele>69.832886</ele>
                <time>2004-10-30T07:07:21Z</time>
            </trkpt>
            <trkpt lon="100.984955" lat="12.930372">
                <ele>68.390869</ele>
                <time>2004-10-30T07:07:31Z</time>
            </trkpt>
            <trkpt lon="100.984890" lat="12.930501">
                <ele>67.910278</ele>
                <time>2004-10-30T07:07:34Z</time>
            </trkpt>
            <trkpt lon="100.984290" lat="12.930865">
                <ele>67.910278</ele>
                <time>2004-10-30T07:07:47Z</time>
            </trkpt>
            <trkpt lon="100.984311" lat="12.931015">
                <ele>66.948975</ele>
                <time>2004-10-30T07:07:52Z</time>
            </trkpt>
            <trkpt lon="100.984547" lat="12.931423">
                <ele>65.987671</ele>
                <time>2004-10-30T07:08:02Z</time>
            </trkpt>
            <trkpt lon="100.984633" lat="12.931552">
                <ele>65.507080</ele>
                <time>2004-10-30T07:08:05Z</time>
            </trkpt>
            <trkpt lon="100.984740" lat="12.931724">
                <ele>66.948975</ele>
                <time>2004-10-30T07:08:09Z</time>
            </trkpt>
            <trkpt lon="100.984783" lat="12.931852">
                <ele>66.948975</ele>
                <time>2004-10-30T07:08:18Z</time>
            </trkpt>
            <trkpt lon="100.984805" lat="12.931852">
                <ele>66.948975</ele>
                <time>2004-10-30T07:08:22Z</time>
            </trkpt>
            <trkpt lon="100.984762" lat="12.931917">
                <ele>66.948975</ele>
                <time>2004-10-30T07:08:36Z</time>
            </trkpt>
            <trkpt lon="100.984719" lat="12.931938">
                <ele>66.468262</ele>
                <time>2004-10-30T07:08:52Z</time>
            </trkpt>
            <trkpt lon="100.984633" lat="12.932088">
                <ele>65.987671</ele>
                <time>2004-10-30T07:09:07Z</time>
            </trkpt>
            <trkpt lon="100.984676" lat="12.932067">
                <ele>65.987671</ele>
                <time>2004-10-30T07:09:11Z</time>
            </trkpt>
            <trkpt lon="100.984869" lat="12.931895">
                <ele>67.429688</ele>
                <time>2004-10-30T07:09:22Z</time>
            </trkpt>
            <trkpt lon="100.985084" lat="12.932131">
                <ele>68.390869</ele>
                <time>2004-10-30T07:09:34Z</time>
            </trkpt>
            <trkpt lon="100.985148" lat="12.932217">
                <ele>68.390869</ele>
                <time>2004-10-30T07:09:37Z</time>
            </trkpt>
            <trkpt lon="100.985169" lat="12.932346">
                <ele>67.429688</ele>
                <time>2004-10-30T07:09:40Z</time>
            </trkpt>
            <trkpt lon="100.985405" lat="12.932754">
                <ele>67.429688</ele>
                <time>2004-10-30T07:09:53Z</time>
            </trkpt>
            <trkpt lon="100.985041" lat="12.933011">
                <ele>68.390869</ele>
                <time>2004-10-30T07:10:07Z</time>
            </trkpt>
            <trkpt lon="100.984633" lat="12.933269">
                <ele>65.026367</ele>
                <time>2004-10-30T07:10:23Z</time>
            </trkpt>
            <trkpt lon="100.984590" lat="12.933290">
                <ele>65.026367</ele>
                <time>2004-10-30T07:10:25Z</time>
            </trkpt>
            <trkpt lon="100.984569" lat="12.933311">
                <ele>65.026367</ele>
                <time>2004-10-30T07:10:41Z</time>
            </trkpt>
            <trkpt lon="100.984590" lat="12.933354">
                <ele>66.468262</ele>
                <time>2004-10-30T07:10:56Z</time>
            </trkpt>
            <trkpt lon="100.984612" lat="12.933354">
                <ele>62.142334</ele>
                <time>2004-10-30T07:11:24Z</time>
            </trkpt>
            <trkpt lon="100.984612" lat="12.933376">
                <ele>62.142334</ele>
                <time>2004-10-30T07:11:37Z</time>
            </trkpt>
            <trkpt lon="100.984633" lat="12.933397">
                <ele>64.065063</ele>
                <time>2004-10-30T07:12:06Z</time>
            </trkpt>
            <trkpt lon="100.984654" lat="12.933419">
                <ele>64.545654</ele>
                <time>2004-10-30T07:12:39Z</time>
            </trkpt>
            <trkpt lon="100.984676" lat="12.933419">
                <ele>64.065063</ele>
                <time>2004-10-30T07:13:04Z</time>
            </trkpt>
            <trkpt lon="100.984697" lat="12.933440">
                <ele>65.026367</ele>
                <time>2004-10-30T07:13:24Z</time>
            </trkpt>
            <trkpt lon="100.984719" lat="12.933462">
                <ele>62.622925</ele>
                <time>2004-10-30T07:13:43Z</time>
            </trkpt>
            <trkpt lon="100.984740" lat="12.933483">
                <ele>63.103638</ele>
                <time>2004-10-30T07:14:08Z</time>
            </trkpt>
            <trkpt lon="100.984762" lat="12.933526">
                <ele>63.103638</ele>
                <time>2004-10-30T07:14:20Z</time>
            </trkpt>
            <trkpt lon="100.984783" lat="12.933612">
                <ele>63.584351</ele>
                <time>2004-10-30T07:14:34Z</time>
            </trkpt>
            <trkpt lon="100.984805" lat="12.933698">
                <ele>64.545654</ele>
                <time>2004-10-30T07:14:50Z</time>
            </trkpt>
            <trkpt lon="100.984848" lat="12.933741">
                <ele>63.103638</ele>
                <time>2004-10-30T07:15:06Z</time>
            </trkpt>
            <trkpt lon="100.984848" lat="12.933869">
                <ele>62.622925</ele>
                <time>2004-10-30T07:15:20Z</time>
            </trkpt>
            <trkpt lon="100.984826" lat="12.934170">
                <ele>62.622925</ele>
                <time>2004-10-30T07:15:33Z</time>
            </trkpt>
            <trkpt lon="100.984912" lat="12.934406">
                <ele>63.584351</ele>
                <time>2004-10-30T07:15:50Z</time>
            </trkpt>
            <trkpt lon="100.984955" lat="12.934599">
                <ele>65.507080</ele>
                <time>2004-10-30T07:16:07Z</time>
            </trkpt>
            <trkpt lon="100.984890" lat="12.935007">
                <ele>64.545654</ele>
                <time>2004-10-30T07:16:27Z</time>
            </trkpt>
            <trkpt lon="100.984676" lat="12.935479">
                <ele>62.622925</ele>
                <time>2004-10-30T07:16:43Z</time>
            </trkpt>
            <trkpt lon="100.984440" lat="12.936187">
                <ele>64.065063</ele>
                <time>2004-10-30T07:17:05Z</time>
            </trkpt>
            <trkpt lon="100.984418" lat="12.936273">
                <ele>63.584351</ele>
                <time>2004-10-30T07:17:09Z</time>
            </trkpt>
            <trkpt lon="100.984526" lat="12.936337">
                <ele>62.622925</ele>
                <time>2004-10-30T07:17:16Z</time>
            </trkpt>
            <trkpt lon="100.984569" lat="12.936444">
                <ele>63.103638</ele>
                <time>2004-10-30T07:17:21Z</time>
            </trkpt>
            <trkpt lon="100.984590" lat="12.937045">
                <ele>62.622925</ele>
                <time>2004-10-30T07:17:38Z</time>
            </trkpt>
            <trkpt lon="100.984590" lat="12.937152">
                <ele>62.142334</ele>
                <time>2004-10-30T07:17:41Z</time>
            </trkpt>
            <trkpt lon="100.984612" lat="12.937324">
                <ele>61.661743</ele>
                <time>2004-10-30T07:17:45Z</time>
            </trkpt>
            <trkpt lon="100.984590" lat="12.937539">
                <ele>60.700317</ele>
                <time>2004-10-30T07:17:50Z</time>
            </trkpt>
            <trkpt lon="100.984547" lat="12.937968">
                <ele>60.700317</ele>
                <time>2004-10-30T07:18:00Z</time>
            </trkpt>
            <trkpt lon="100.984719" lat="12.938161">
                <ele>60.219727</ele>
                <time>2004-10-30T07:18:06Z</time>
            </trkpt>
            <trkpt lon="100.984805" lat="12.938182">
                <ele>60.700317</ele>
                <time>2004-10-30T07:18:08Z</time>
            </trkpt>
            <trkpt lon="100.985641" lat="12.938547">
                <ele>63.103638</ele>
                <time>2004-10-30T07:18:28Z</time>
            </trkpt>
            <trkpt lon="100.986285" lat="12.939019">
                <ele>64.545654</ele>
                <time>2004-10-30T07:18:48Z</time>
            </trkpt>
            <trkpt lon="100.986993" lat="12.939341">
                <ele>65.026367</ele>
                <time>2004-10-30T07:19:07Z</time>
            </trkpt>
            <trkpt lon="100.987465" lat="12.939384">
                <ele>65.507080</ele>
                <time>2004-10-30T07:19:20Z</time>
            </trkpt>
            <trkpt lon="100.988023" lat="12.938676">
                <ele>65.507080</ele>
                <time>2004-10-30T07:19:42Z</time>
            </trkpt>
            <trkpt lon="100.988431" lat="12.938461">
                <ele>66.468262</ele>
                <time>2004-10-30T07:19:56Z</time>
            </trkpt>
            <trkpt lon="100.988967" lat="12.938740">
                <ele>67.429688</ele>
                <time>2004-10-30T07:20:12Z</time>
            </trkpt>
            <trkpt lon="100.989246" lat="12.938933">
                <ele>67.910278</ele>
                <time>2004-10-30T07:20:25Z</time>
            </trkpt>
            <trkpt lon="100.989697" lat="12.939212">
                <ele>69.352295</ele>
                <time>2004-10-30T07:20:41Z</time>
            </trkpt>
            <trkpt lon="100.989869" lat="12.939363">
                <ele>69.352295</ele>
                <time>2004-10-30T07:20:47Z</time>
            </trkpt>
            <trkpt lon="100.989761" lat="12.939620">
                <ele>67.910278</ele>
                <time>2004-10-30T07:20:55Z</time>
            </trkpt>
            <trkpt lon="100.989525" lat="12.940392">
                <ele>65.987671</ele>
                <time>2004-10-30T07:21:15Z</time>
            </trkpt>
            <trkpt lon="100.989225" lat="12.940993">
                <ele>67.429688</ele>
                <time>2004-10-30T07:21:30Z</time>
            </trkpt>
            <trkpt lon="100.989311" lat="12.941422">
                <ele>66.948975</ele>
                <time>2004-10-30T07:21:40Z</time>
            </trkpt>
            <trkpt lon="100.989397" lat="12.941594">
                <ele>66.468262</ele>
                <time>2004-10-30T07:21:44Z</time>
            </trkpt>
            <trkpt lon="100.989633" lat="12.941873">
                <ele>65.026367</ele>
                <time>2004-10-30T07:21:51Z</time>
            </trkpt>
            <trkpt lon="100.989761" lat="12.942045">
                <ele>65.507080</ele>
                <time>2004-10-30T07:21:55Z</time>
            </trkpt>
            <trkpt lon="100.989869" lat="12.942410">
                <ele>65.507080</ele>
                <time>2004-10-30T07:22:06Z</time>
            </trkpt>
            <trkpt lon="100.990083" lat="12.942924">
                <ele>65.987671</ele>
                <time>2004-10-30T07:22:19Z</time>
            </trkpt>
            <trkpt lon="100.990191" lat="12.943590">
                <ele>68.390869</ele>
                <time>2004-10-30T07:22:37Z</time>
            </trkpt>
            <trkpt lon="100.990169" lat="12.944040">
                <ele>70.313477</ele>
                <time>2004-10-30T07:22:55Z</time>
            </trkpt>
            <trkpt lon="100.989954" lat="12.944341">
                <ele>71.274902</ele>
                <time>2004-10-30T07:23:12Z</time>
            </trkpt>
            <trkpt lon="100.989912" lat="12.944384">
                <ele>71.274902</ele>
                <time>2004-10-30T07:23:14Z</time>
            </trkpt>
            <trkpt lon="100.989482" lat="12.944469">
                <ele>69.832886</ele>
                <time>2004-10-30T07:23:23Z</time>
            </trkpt>
            <trkpt lon="100.988324" lat="12.944705">
                <ele>67.910278</ele>
                <time>2004-10-30T07:23:44Z</time>
            </trkpt>
            <trkpt lon="100.987766" lat="12.945006">
                <ele>67.429688</ele>
                <time>2004-10-30T07:23:57Z</time>
            </trkpt>
            <trkpt lon="100.987272" lat="12.945971">
                <ele>65.507080</ele>
                <time>2004-10-30T07:24:18Z</time>
            </trkpt>
            <trkpt lon="100.987101" lat="12.946100">
                <ele>65.987671</ele>
                <time>2004-10-30T07:24:24Z</time>
            </trkpt>
            <trkpt lon="100.987079" lat="12.946122">
                <ele>67.429688</ele>
                <time>2004-10-30T07:24:36Z</time>
            </trkpt>
            <trkpt lon="100.987058" lat="12.946122">
                <ele>68.390869</ele>
                <time>2004-10-30T07:24:51Z</time>
            </trkpt>
            <trkpt lon="100.986736" lat="12.946293">
                <ele>69.352295</ele>
                <time>2004-10-30T07:25:06Z</time>
            </trkpt>
            <trkpt lon="100.986092" lat="12.946765">
                <ele>69.832886</ele>
                <time>2004-10-30T07:25:28Z</time>
            </trkpt>
            <trkpt lon="100.985620" lat="12.947323">
                <ele>71.755493</ele>
                <time>2004-10-30T07:25:51Z</time>
            </trkpt>
            <trkpt lon="100.985320" lat="12.948096">
                <ele>70.313477</ele>
                <time>2004-10-30T07:26:12Z</time>
            </trkpt>
            <trkpt lon="100.984805" lat="12.949061">
                <ele>70.794189</ele>
                <time>2004-10-30T07:26:34Z</time>
            </trkpt>
            <trkpt lon="100.984676" lat="12.949319">
                <ele>70.794189</ele>
                <time>2004-10-30T07:26:39Z</time>
            </trkpt>
            <trkpt lon="100.984397" lat="12.950199">
                <ele>69.352295</ele>
                <time>2004-10-30T07:26:56Z</time>
            </trkpt>
            <trkpt lon="100.984268" lat="12.950413">
                <ele>68.871582</ele>
                <time>2004-10-30T07:27:01Z</time>
            </trkpt>
            <trkpt lon="100.983431" lat="12.951229">
                <ele>66.948975</ele>
                <time>2004-10-30T07:27:19Z</time>
            </trkpt>
            <trkpt lon="100.982487" lat="12.952130">
                <ele>64.545654</ele>
                <time>2004-10-30T07:27:40Z</time>
            </trkpt>
            <trkpt lon="100.982337" lat="12.952237">
                <ele>65.026367</ele>
                <time>2004-10-30T07:27:46Z</time>
            </trkpt>
            <trkpt lon="100.982122" lat="12.952559">
                <ele>65.026367</ele>
                <time>2004-10-30T07:28:00Z</time>
            </trkpt>
            <trkpt lon="100.982037" lat="12.952666">
                <ele>62.622925</ele>
                <time>2004-10-30T07:28:03Z</time>
            </trkpt>
            <trkpt lon="100.981736" lat="12.953138">
                <ele>61.661743</ele>
                <time>2004-10-30T07:28:13Z</time>
            </trkpt>
            <trkpt lon="100.981522" lat="12.953246">
                <ele>62.622925</ele>
                <time>2004-10-30T07:28:17Z</time>
            </trkpt>
            <trkpt lon="100.981286" lat="12.953289">
                <ele>63.584351</ele>
                <time>2004-10-30T07:28:22Z</time>
            </trkpt>
            <trkpt lon="100.981243" lat="12.953396">
                <ele>63.103638</ele>
                <time>2004-10-30T07:28:26Z</time>
            </trkpt>
            <trkpt lon="100.981221" lat="12.953525">
                <ele>62.142334</ele>
                <time>2004-10-30T07:28:36Z</time>
            </trkpt>
            <trkpt lon="100.981221" lat="12.953546">
                <ele>63.103638</ele>
                <time>2004-10-30T07:28:38Z</time>
            </trkpt>
            <trkpt lon="100.981393" lat="12.954125">
                <ele>60.219727</ele>
                <time>2004-10-30T07:28:52Z</time>
            </trkpt>
            <trkpt lon="100.981414" lat="12.954383">
                <ele>60.700317</ele>
                <time>2004-10-30T07:28:57Z</time>
            </trkpt>
            <trkpt lon="100.981371" lat="12.954576">
                <ele>59.739136</ele>
                <time>2004-10-30T07:29:01Z</time>
            </trkpt>
            <trkpt lon="100.981200" lat="12.954748">
                <ele>58.777710</ele>
                <time>2004-10-30T07:29:06Z</time>
            </trkpt>
            <trkpt lon="100.981114" lat="12.954876">
                <ele>59.258423</ele>
                <time>2004-10-30T07:29:09Z</time>
            </trkpt>
            <trkpt lon="100.980942" lat="12.954919">
                <ele>59.258423</ele>
                <time>2004-10-30T07:29:13Z</time>
            </trkpt>
            <trkpt lon="100.980020" lat="12.954962">
                <ele>59.258423</ele>
                <time>2004-10-30T07:29:33Z</time>
            </trkpt>
            <trkpt lon="100.979869" lat="12.955155">
                <ele>59.258423</ele>
                <time>2004-10-30T07:29:43Z</time>
            </trkpt>
            <trkpt lon="100.979698" lat="12.955241">
                <ele>59.739136</ele>
                <time>2004-10-30T07:29:54Z</time>
            </trkpt>
            <trkpt lon="100.979269" lat="12.955434">
                <ele>60.219727</ele>
                <time>2004-10-30T07:30:10Z</time>
            </trkpt>
            <trkpt lon="100.978689" lat="12.955778">
                <ele>59.739136</ele>
                <time>2004-10-30T07:30:27Z</time>
            </trkpt>
            <trkpt lon="100.978281" lat="12.956057">
                <ele>63.584351</ele>
                <time>2004-10-30T07:30:44Z</time>
            </trkpt>
            <trkpt lon="100.977874" lat="12.956464">
                <ele>64.545654</ele>
                <time>2004-10-30T07:31:06Z</time>
            </trkpt>
            <trkpt lon="100.977573" lat="12.956722">
                <ele>67.429688</ele>
                <time>2004-10-30T07:31:23Z</time>
            </trkpt>
            <trkpt lon="100.977488" lat="12.956679">
                <ele>66.948975</ele>
                <time>2004-10-30T07:31:29Z</time>
            </trkpt>
            <trkpt lon="100.977144" lat="12.956357">
                <ele>67.429688</ele>
                <time>2004-10-30T07:31:45Z</time>
            </trkpt>
            <trkpt lon="100.976973" lat="12.956207">
                <ele>65.987671</ele>
                <time>2004-10-30T07:32:16Z</time>
            </trkpt>
            <trkpt lon="100.976415" lat="12.955477">
                <ele>64.545654</ele>
                <time>2004-10-30T07:32:33Z</time>
            </trkpt>
            <trkpt lon="100.975707" lat="12.954769">
                <ele>62.142334</ele>
                <time>2004-10-30T07:32:49Z</time>
            </trkpt>
            <trkpt lon="100.975406" lat="12.954469">
                <ele>61.181030</ele>
                <time>2004-10-30T07:32:56Z</time>
            </trkpt>
            <trkpt lon="100.975063" lat="12.954426">
                <ele>61.181030</ele>
                <time>2004-10-30T07:33:02Z</time>
            </trkpt>
            <trkpt lon="100.974033" lat="12.954791">
                <ele>62.622925</ele>
                <time>2004-10-30T07:33:22Z</time>
            </trkpt>
            <trkpt lon="100.973861" lat="12.954919">
                <ele>62.622925</ele>
                <time>2004-10-30T07:33:27Z</time>
            </trkpt>
            <trkpt lon="100.972853" lat="12.955198">
                <ele>63.584351</ele>
                <time>2004-10-30T07:33:48Z</time>
            </trkpt>
            <trkpt lon="100.972703" lat="12.955263">
                <ele>63.584351</ele>
                <time>2004-10-30T07:33:51Z</time>
            </trkpt>
            <trkpt lon="100.972338" lat="12.955413">
                <ele>64.065063</ele>
                <time>2004-10-30T07:33:58Z</time>
            </trkpt>
            <trkpt lon="100.971308" lat="12.956035">
                <ele>64.545654</ele>
                <time>2004-10-30T07:34:22Z</time>
            </trkpt>
            <trkpt lon="100.971200" lat="12.956100">
                <ele>64.545654</ele>
                <time>2004-10-30T07:34:24Z</time>
            </trkpt>
            <trkpt lon="100.970836" lat="12.956293">
                <ele>64.065063</ele>
                <time>2004-10-30T07:34:33Z</time>
            </trkpt>
            <trkpt lon="100.969999" lat="12.956786">
                <ele>62.622925</ele>
                <time>2004-10-30T07:34:52Z</time>
            </trkpt>
            <trkpt lon="100.969033" lat="12.957366">
                <ele>63.584351</ele>
                <time>2004-10-30T07:35:14Z</time>
            </trkpt>
            <trkpt lon="100.968583" lat="12.957644">
                <ele>62.622925</ele>
                <time>2004-10-30T07:35:24Z</time>
            </trkpt>
            <trkpt lon="100.968046" lat="12.957966">
                <ele>62.142334</ele>
                <time>2004-10-30T07:35:36Z</time>
            </trkpt>
            <trkpt lon="100.967553" lat="12.958224">
                <ele>61.181030</ele>
                <time>2004-10-30T07:35:49Z</time>
            </trkpt>
            <trkpt lon="100.967145" lat="12.958438">
                <ele>60.700317</ele>
                <time>2004-10-30T07:35:59Z</time>
            </trkpt>
            <trkpt lon="100.966630" lat="12.958825">
                <ele>59.258423</ele>
                <time>2004-10-30T07:36:11Z</time>
            </trkpt>
            <trkpt lon="100.965879" lat="12.959275">
                <ele>58.777710</ele>
                <time>2004-10-30T07:36:27Z</time>
            </trkpt>
            <trkpt lon="100.964913" lat="12.959833">
                <ele>58.297119</ele>
                <time>2004-10-30T07:36:48Z</time>
            </trkpt>
            <trkpt lon="100.964291" lat="12.960305">
                <ele>59.739136</ele>
                <time>2004-10-30T07:37:05Z</time>
            </trkpt>
            <trkpt lon="100.963862" lat="12.960734">
                <ele>57.335815</ele>
                <time>2004-10-30T07:37:19Z</time>
            </trkpt>
            <trkpt lon="100.963089" lat="12.961400">
                <ele>54.451782</ele>
                <time>2004-10-30T07:37:39Z</time>
            </trkpt>
            <trkpt lon="100.962253" lat="12.962000">
                <ele>52.048584</ele>
                <time>2004-10-30T07:37:58Z</time>
            </trkpt>
            <trkpt lon="100.961502" lat="12.962494">
                <ele>50.125977</ele>
                <time>2004-10-30T07:38:15Z</time>
            </trkpt>
            <trkpt lon="100.961244" lat="12.962644">
                <ele>51.567871</ele>
                <time>2004-10-30T07:38:20Z</time>
            </trkpt>
            <trkpt lon="100.960343" lat="12.963009">
                <ele>49.164551</ele>
                <time>2004-10-30T07:38:38Z</time>
            </trkpt>
            <trkpt lon="100.959785" lat="12.963331">
                <ele>43.877319</ele>
                <time>2004-10-30T07:38:54Z</time>
            </trkpt>
            <trkpt lon="100.959828" lat="12.963331">
                <ele>44.838623</ele>
                <time>2004-10-30T07:38:59Z</time>
            </trkpt>
            <trkpt lon="100.959914" lat="12.963052">
                <ele>45.799927</ele>
                <time>2004-10-30T07:39:13Z</time>
            </trkpt>
            <trkpt lon="100.959742" lat="12.962923">
                <ele>46.280640</ele>
                <time>2004-10-30T07:39:25Z</time>
            </trkpt>
            <trkpt lon="100.959485" lat="12.962580">
                <ele>47.241821</ele>
                <time>2004-10-30T07:39:45Z</time>
            </trkpt>
            <trkpt lon="100.959442" lat="12.962537">
                <ele>50.125977</ele>
                <time>2004-10-30T07:39:57Z</time>
            </trkpt>
            <trkpt lon="100.959442" lat="12.962558">
                <ele>50.606567</ele>
                <time>2004-10-30T07:40:04Z</time>
            </trkpt>
            <trkpt lon="100.959613" lat="12.962859">
                <ele>49.645264</ele>
                <time>2004-10-30T07:40:19Z</time>
            </trkpt>
            <trkpt lon="100.959892" lat="12.963159">
                <ele>48.203369</ele>
                <time>2004-10-30T07:40:31Z</time>
            </trkpt>
            <trkpt lon="100.959806" lat="12.963374">
                <ele>47.241821</ele>
                <time>2004-10-30T07:40:38Z</time>
            </trkpt>
            <trkpt lon="100.959013" lat="12.964017">
                <ele>43.877319</ele>
                <time>2004-10-30T07:40:58Z</time>
            </trkpt>
            <trkpt lon="100.958884" lat="12.964103">
                <ele>43.877319</ele>
                <time>2004-10-30T07:41:06Z</time>
            </trkpt>
            <trkpt lon="100.958776" lat="12.964189">
                <ele>43.877319</ele>
                <time>2004-10-30T07:41:21Z</time>
            </trkpt>
            <trkpt lon="100.958626" lat="12.964361">
                <ele>42.435425</ele>
                <time>2004-10-30T07:41:32Z</time>
            </trkpt>
            <trkpt lon="100.958648" lat="12.964361">
                <ele>42.435425</ele>
                <time>2004-10-30T07:41:36Z</time>
            </trkpt>
            <trkpt lon="100.958669" lat="12.964404">
                <ele>42.916016</ele>
                <time>2004-10-30T07:41:45Z</time>
            </trkpt>
            <trkpt lon="100.958626" lat="12.964489">
                <ele>43.396606</ele>
                <time>2004-10-30T07:41:50Z</time>
            </trkpt>
            <trkpt lon="100.958304" lat="12.964618">
                <ele>41.954712</ele>
                <time>2004-10-30T07:42:00Z</time>
            </trkpt>
            <trkpt lon="100.958347" lat="12.964983">
                <ele>42.435425</ele>
                <time>2004-10-30T07:42:12Z</time>
            </trkpt>
            <trkpt lon="100.958583" lat="12.965305">
                <ele>42.435425</ele>
                <time>2004-10-30T07:42:24Z</time>
            </trkpt>
            <trkpt lon="100.958691" lat="12.965369">
                <ele>42.435425</ele>
                <time>2004-10-30T07:42:30Z</time>
            </trkpt>
            <trkpt lon="100.958798" lat="12.965369">
                <ele>43.396606</ele>
                <time>2004-10-30T07:42:35Z</time>
            </trkpt>
            <trkpt lon="100.959055" lat="12.965262">
                <ele>45.319214</ele>
                <time>2004-10-30T07:42:46Z</time>
            </trkpt>
            <trkpt lon="100.959463" lat="12.965519">
                <ele>44.358032</ele>
                <time>2004-10-30T07:43:02Z</time>
            </trkpt>
            <trkpt lon="100.959549" lat="12.965541">
                <ele>44.838623</ele>
                <time>2004-10-30T07:43:05Z</time>
            </trkpt>
            <trkpt lon="100.959935" lat="12.965369">
                <ele>45.799927</ele>
                <time>2004-10-30T07:43:18Z</time>
            </trkpt>
            <trkpt lon="100.960150" lat="12.965305">
                <ele>45.799927</ele>
                <time>2004-10-30T07:43:24Z</time>
            </trkpt>
            <trkpt lon="100.960536" lat="12.965477">
                <ele>47.241821</ele>
                <time>2004-10-30T07:43:35Z</time>
            </trkpt>
            <trkpt lon="100.960686" lat="12.965584">
                <ele>46.280640</ele>
                <time>2004-10-30T07:43:41Z</time>
            </trkpt>
            <trkpt lon="100.960793" lat="12.966206">
                <ele>44.838623</ele>
                <time>2004-10-30T07:43:57Z</time>
            </trkpt>
            <trkpt lon="100.960879" lat="12.966549">
                <ele>44.358032</ele>
                <time>2004-10-30T07:44:06Z</time>
            </trkpt>
            <trkpt lon="100.961094" lat="12.966592">
                <ele>43.396606</ele>
                <time>2004-10-30T07:44:15Z</time>
            </trkpt>
            <trkpt lon="100.961180" lat="12.966979">
                <ele>43.877319</ele>
                <time>2004-10-30T07:44:29Z</time>
            </trkpt>
            <trkpt lon="100.961180" lat="12.967021">
                <ele>43.877319</ele>
                <time>2004-10-30T07:44:31Z</time>
            </trkpt>
            <trkpt lon="100.961223" lat="12.967043">
                <ele>43.877319</ele>
                <time>2004-10-30T07:44:36Z</time>
            </trkpt>
            <trkpt lon="100.961330" lat="12.967043">
                <ele>41.954712</ele>
                <time>2004-10-30T07:44:49Z</time>
            </trkpt>
            <trkpt lon="100.961330" lat="12.967043">
                <ele>41.473999</ele>
                <time>2004-10-30T07:44:50Z</time>
            </trkpt>
            <trkpt lon="100.961416" lat="12.967172">
                <ele>40.512817</ele>
                <time>2004-10-30T07:44:58Z</time>
            </trkpt>
            <trkpt lon="100.961566" lat="12.967343">
                <ele>39.551270</ele>
                <time>2004-10-30T07:45:07Z</time>
            </trkpt>
            <trkpt lon="100.961952" lat="12.967279">
                <ele>37.628662</ele>
                <time>2004-10-30T07:45:21Z</time>
            </trkpt>
            <trkpt lon="100.962059" lat="12.967386">
                <ele>37.148071</ele>
                <time>2004-10-30T07:45:27Z</time>
            </trkpt>
            <trkpt lon="100.962081" lat="12.967772">
                <ele>35.225464</ele>
                <time>2004-10-30T07:45:39Z</time>
            </trkpt>
            <trkpt lon="100.962188" lat="12.968223">
                <ele>34.744873</ele>
                <time>2004-10-30T07:45:54Z</time>
            </trkpt>
            <trkpt lon="100.962424" lat="12.968588">
                <ele>33.783447</ele>
                <time>2004-10-30T07:46:07Z</time>
            </trkpt>
            <trkpt lon="100.962489" lat="12.968695">
                <ele>33.783447</ele>
                <time>2004-10-30T07:46:10Z</time>
            </trkpt>
            <trkpt lon="100.962703" lat="12.969124">
                <ele>33.783447</ele>
                <time>2004-10-30T07:46:26Z</time>
            </trkpt>
            <trkpt lon="100.963089" lat="12.969360">
                <ele>34.744873</ele>
                <time>2004-10-30T07:46:42Z</time>
            </trkpt>
            <trkpt lon="100.963497" lat="12.969553">
                <ele>36.667480</ele>
                <time>2004-10-30T07:46:59Z</time>
            </trkpt>
            <trkpt lon="100.963497" lat="12.969832">
                <ele>37.628662</ele>
                <time>2004-10-30T07:47:11Z</time>
            </trkpt>
            <trkpt lon="100.963411" lat="12.969983">
                <ele>36.667480</ele>
                <time>2004-10-30T07:47:15Z</time>
            </trkpt>
            <trkpt lon="100.962789" lat="12.970347">
                <ele>35.225464</ele>
                <time>2004-10-30T07:47:30Z</time>
            </trkpt>
            <trkpt lon="100.962467" lat="12.970390">
                <ele>34.744873</ele>
                <time>2004-10-30T07:47:36Z</time>
            </trkpt>
            <trkpt lon="100.961223" lat="12.970777">
                <ele>31.860718</ele>
                <time>2004-10-30T07:47:58Z</time>
            </trkpt>
            <trkpt lon="100.961115" lat="12.970798">
                <ele>31.860718</ele>
                <time>2004-10-30T07:48:00Z</time>
            </trkpt>
            <trkpt lon="100.961008" lat="12.970798">
                <ele>32.341553</ele>
                <time>2004-10-30T07:48:02Z</time>
            </trkpt>
            <trkpt lon="100.959871" lat="12.970691">
                <ele>30.899536</ele>
                <time>2004-10-30T07:48:21Z</time>
            </trkpt>
            <trkpt lon="100.958884" lat="12.970648">
                <ele>31.380127</ele>
                <time>2004-10-30T07:48:37Z</time>
            </trkpt>
            <trkpt lon="100.957961" lat="12.970712">
                <ele>29.938110</ele>
                <time>2004-10-30T07:48:53Z</time>
            </trkpt>
            <trkpt lon="100.956802" lat="12.970648">
                <ele>28.976929</ele>
                <time>2004-10-30T07:49:13Z</time>
            </trkpt>
            <trkpt lon="100.955493" lat="12.970583">
                <ele>27.534912</ele>
                <time>2004-10-30T07:49:34Z</time>
            </trkpt>
            <trkpt lon="100.954142" lat="12.970412">
                <ele>27.054321</ele>
                <time>2004-10-30T07:49:56Z</time>
            </trkpt>
            <trkpt lon="100.952640" lat="12.970283">
                <ele>24.170288</ele>
                <time>2004-10-30T07:50:21Z</time>
            </trkpt>
            <trkpt lon="100.952318" lat="12.970219">
                <ele>22.247559</ele>
                <time>2004-10-30T07:50:27Z</time>
            </trkpt>
            <trkpt lon="100.951974" lat="12.969983">
                <ele>22.247559</ele>
                <time>2004-10-30T07:50:34Z</time>
            </trkpt>
            <trkpt lon="100.951867" lat="12.969854">
                <ele>23.689575</ele>
                <time>2004-10-30T07:50:37Z</time>
            </trkpt>
            <trkpt lon="100.951760" lat="12.969682">
                <ele>23.208984</ele>
                <time>2004-10-30T07:50:40Z</time>
            </trkpt>
            <trkpt lon="100.951266" lat="12.969253">
                <ele>24.170288</ele>
                <time>2004-10-30T07:50:54Z</time>
            </trkpt>
            <trkpt lon="100.951159" lat="12.969317">
                <ele>24.170288</ele>
                <time>2004-10-30T07:50:59Z</time>
            </trkpt>
            <trkpt lon="100.950687" lat="12.969897">
                <ele>23.208984</ele>
                <time>2004-10-30T07:51:15Z</time>
            </trkpt>
            <trkpt lon="100.950429" lat="12.970197">
                <ele>21.286377</ele>
                <time>2004-10-30T07:51:22Z</time>
            </trkpt>
            <trkpt lon="100.949657" lat="12.970605">
                <ele>21.766968</ele>
                <time>2004-10-30T07:51:37Z</time>
            </trkpt>
            <trkpt lon="100.949485" lat="12.970712">
                <ele>21.766968</ele>
                <time>2004-10-30T07:51:41Z</time>
            </trkpt>
            <trkpt lon="100.949335" lat="12.970884">
                <ele>21.286377</ele>
                <time>2004-10-30T07:51:46Z</time>
            </trkpt>
            <trkpt lon="100.949249" lat="12.971077">
                <ele>21.286377</ele>
                <time>2004-10-30T07:51:51Z</time>
            </trkpt>
            <trkpt lon="100.949056" lat="12.971892">
                <ele>20.324951</ele>
                <time>2004-10-30T07:52:08Z</time>
            </trkpt>
            <trkpt lon="100.949228" lat="12.972858">
                <ele>21.286377</ele>
                <time>2004-10-30T07:52:29Z</time>
            </trkpt>
            <trkpt lon="100.949249" lat="12.973008">
                <ele>21.766968</ele>
                <time>2004-10-30T07:52:34Z</time>
            </trkpt>
            <trkpt lon="100.948992" lat="12.973030">
                <ele>22.247559</ele>
                <time>2004-10-30T07:52:42Z</time>
            </trkpt>
            <trkpt lon="100.948284" lat="12.972772">
                <ele>23.208984</ele>
                <time>2004-10-30T07:52:59Z</time>
            </trkpt>
            <trkpt lon="100.948112" lat="12.972751">
                <ele>23.689575</ele>
                <time>2004-10-30T07:53:03Z</time>
            </trkpt>
            <trkpt lon="100.947855" lat="12.972708">
                <ele>22.728271</ele>
                <time>2004-10-30T07:53:08Z</time>
            </trkpt>
            <trkpt lon="100.947640" lat="12.972643">
                <ele>22.247559</ele>
                <time>2004-10-30T07:53:13Z</time>
            </trkpt>
            <trkpt lon="100.947533" lat="12.972622">
                <ele>21.766968</ele>
                <time>2004-10-30T07:53:15Z</time>
            </trkpt>
            <trkpt lon="100.946889" lat="12.972579">
                <ele>21.286377</ele>
                <time>2004-10-30T07:53:27Z</time>
            </trkpt>
            <trkpt lon="100.946460" lat="12.972536">
                <ele>19.844360</ele>
                <time>2004-10-30T07:53:35Z</time>
            </trkpt>
            <trkpt lon="100.946267" lat="12.972600">
                <ele>19.363770</ele>
                <time>2004-10-30T07:53:39Z</time>
            </trkpt>
            <trkpt lon="100.945988" lat="12.972622">
                <ele>18.883057</ele>
                <time>2004-10-30T07:53:44Z</time>
            </trkpt>
            <trkpt lon="100.945773" lat="12.972815">
                <ele>17.921753</ele>
                <time>2004-10-30T07:53:49Z</time>
            </trkpt>
            <trkpt lon="100.945601" lat="12.973588">
                <ele>16.479736</ele>
                <time>2004-10-30T07:54:04Z</time>
            </trkpt>
            <trkpt lon="100.945237" lat="12.974060">
                <ele>16.960449</ele>
                <time>2004-10-30T07:54:17Z</time>
            </trkpt>
            <trkpt lon="100.944850" lat="12.974682">
                <ele>20.805664</ele>
                <time>2004-10-30T07:54:33Z</time>
            </trkpt>
            <trkpt lon="100.944614" lat="12.975025">
                <ele>19.844360</ele>
                <time>2004-10-30T07:54:42Z</time>
            </trkpt>
            <trkpt lon="100.944636" lat="12.975347">
                <ele>17.441162</ele>
                <time>2004-10-30T07:54:50Z</time>
            </trkpt>
            <trkpt lon="100.944378" lat="12.975755">
                <ele>17.441162</ele>
                <time>2004-10-30T07:55:02Z</time>
            </trkpt>
            <trkpt lon="100.943842" lat="12.976377">
                <ele>19.844360</ele>
                <time>2004-10-30T07:55:21Z</time>
            </trkpt>
            <trkpt lon="100.943563" lat="12.976999">
                <ele>16.960449</ele>
                <time>2004-10-30T07:55:38Z</time>
            </trkpt>
            <trkpt lon="100.943456" lat="12.977171">
                <ele>15.999023</ele>
                <time>2004-10-30T07:55:43Z</time>
            </trkpt>
            <trkpt lon="100.943756" lat="12.977386">
                <ele>16.960449</ele>
                <time>2004-10-30T07:55:55Z</time>
            </trkpt>
            <trkpt lon="100.944014" lat="12.977643">
                <ele>19.844360</ele>
                <time>2004-10-30T07:56:09Z</time>
            </trkpt>
            <trkpt lon="100.943713" lat="12.978051">
                <ele>21.766968</ele>
                <time>2004-10-30T07:56:22Z</time>
            </trkpt>
            <trkpt lon="100.943670" lat="12.978072">
                <ele>21.766968</ele>
                <time>2004-10-30T07:56:23Z</time>
            </trkpt>
            <trkpt lon="100.943627" lat="12.978158">
                <ele>21.286377</ele>
                <time>2004-10-30T07:56:25Z</time>
            </trkpt>
            <trkpt lon="100.943477" lat="12.978201">
                <ele>20.324951</ele>
                <time>2004-10-30T07:56:30Z</time>
            </trkpt>
            <trkpt lon="100.943305" lat="12.978094">
                <ele>19.363770</ele>
                <time>2004-10-30T07:56:34Z</time>
            </trkpt>
            <trkpt lon="100.943112" lat="12.978029">
                <ele>18.883057</ele>
                <time>2004-10-30T07:56:38Z</time>
            </trkpt>
            <trkpt lon="100.942490" lat="12.978201">
                <ele>23.208984</ele>
                <time>2004-10-30T07:56:53Z</time>
            </trkpt>
            <trkpt lon="100.942211" lat="12.978244">
                <ele>22.728271</ele>
                <time>2004-10-30T07:57:03Z</time>
            </trkpt>
            <trkpt lon="100.942233" lat="12.978222">
                <ele>24.170288</ele>
                <time>2004-10-30T07:57:06Z</time>
            </trkpt>
            <trkpt lon="100.942512" lat="12.977965">
                <ele>25.612305</ele>
                <time>2004-10-30T07:57:22Z</time>
            </trkpt>
            <trkpt lon="100.942554" lat="12.977922">
                <ele>26.092896</ele>
                <time>2004-10-30T07:57:25Z</time>
            </trkpt>
            <trkpt lon="100.942662" lat="12.977793">
                <ele>26.573608</ele>
                <time>2004-10-30T07:57:34Z</time>
            </trkpt>
            <trkpt lon="100.942726" lat="12.977836">
                <ele>26.573608</ele>
                <time>2004-10-30T07:57:38Z</time>
            </trkpt>
            <trkpt lon="100.942898" lat="12.977986">
                <ele>26.092896</ele>
                <time>2004-10-30T07:57:47Z</time>
            </trkpt>
            <trkpt lon="100.942898" lat="12.978072">
                <ele>24.651001</ele>
                <time>2004-10-30T07:57:51Z</time>
            </trkpt>
            <trkpt lon="100.942726" lat="12.978523">
                <ele>25.612305</ele>
                <time>2004-10-30T07:58:05Z</time>
            </trkpt>
            <trkpt lon="100.942512" lat="12.978845">
                <ele>26.092896</ele>
                <time>2004-10-30T07:58:17Z</time>
            </trkpt>
            <trkpt lon="100.941932" lat="12.979789">
                <ele>23.208984</ele>
                <time>2004-10-30T07:58:44Z</time>
            </trkpt>
            <trkpt lon="100.941610" lat="12.980368">
                <ele>22.247559</ele>
                <time>2004-10-30T07:58:58Z</time>
            </trkpt>
            <trkpt lon="100.941460" lat="12.980325">
                <ele>22.247559</ele>
                <time>2004-10-30T07:59:02Z</time>
            </trkpt>
            <trkpt lon="100.941095" lat="12.979488">
                <ele>21.286377</ele>
                <time>2004-10-30T07:59:19Z</time>
            </trkpt>
            <trkpt lon="100.940709" lat="12.978523">
                <ele>19.844360</ele>
                <time>2004-10-30T07:59:37Z</time>
            </trkpt>
            <trkpt lon="100.940688" lat="12.978480">
                <ele>19.844360</ele>
                <time>2004-10-30T07:59:38Z</time>
            </trkpt>
            <trkpt lon="100.940409" lat="12.978480">
                <ele>17.921753</ele>
                <time>2004-10-30T07:59:45Z</time>
            </trkpt>
            <trkpt lon="100.940387" lat="12.978523">
                <ele>17.441162</ele>
                <time>2004-10-30T07:59:46Z</time>
            </trkpt>
            <trkpt lon="100.940323" lat="12.978587">
                <ele>17.441162</ele>
                <time>2004-10-30T07:59:48Z</time>
            </trkpt>
            <trkpt lon="100.940044" lat="12.978609">
                <ele>17.921753</ele>
                <time>2004-10-30T07:59:56Z</time>
            </trkpt>
            <trkpt lon="100.939786" lat="12.978308">
                <ele>16.960449</ele>
                <time>2004-10-30T08:00:05Z</time>
            </trkpt>
            <trkpt lon="100.939014" lat="12.977943">
                <ele>15.518433</ele>
                <time>2004-10-30T08:00:21Z</time>
            </trkpt>
            <trkpt lon="100.938563" lat="12.977750">
                <ele>14.557007</ele>
                <time>2004-10-30T08:00:30Z</time>
            </trkpt>
            <trkpt lon="100.938456" lat="12.977686">
                <ele>14.557007</ele>
                <time>2004-10-30T08:00:32Z</time>
            </trkpt>
            <trkpt lon="100.937726" lat="12.976978">
                <ele>13.595825</ele>
                <time>2004-10-30T08:00:50Z</time>
            </trkpt>
            <trkpt lon="100.937533" lat="12.976785">
                <ele>13.595825</ele>
                <time>2004-10-30T08:00:55Z</time>
            </trkpt>
            <trkpt lon="100.937340" lat="12.976677">
                <ele>13.115112</ele>
                <time>2004-10-30T08:01:00Z</time>
            </trkpt>
            <trkpt lon="100.937276" lat="12.976635">
                <ele>13.115112</ele>
                <time>2004-10-30T08:01:02Z</time>
            </trkpt>
            <trkpt lon="100.937061" lat="12.976742">
                <ele>12.634399</ele>
                <time>2004-10-30T08:01:08Z</time>
            </trkpt>
            <trkpt lon="100.936589" lat="12.977428">
                <ele>13.115112</ele>
                <time>2004-10-30T08:01:27Z</time>
            </trkpt>
            <trkpt lon="100.936525" lat="12.977536">
                <ele>13.115112</ele>
                <time>2004-10-30T08:01:30Z</time>
            </trkpt>
            <trkpt lon="100.936396" lat="12.977514">
                <ele>12.634399</ele>
                <time>2004-10-30T08:01:35Z</time>
            </trkpt>
            <trkpt lon="100.935903" lat="12.977278">
                <ele>11.673218</ele>
                <time>2004-10-30T08:01:51Z</time>
            </trkpt>
            <trkpt lon="100.935774" lat="12.977235">
                <ele>11.673218</ele>
                <time>2004-10-30T08:01:54Z</time>
            </trkpt>
            <trkpt lon="100.935473" lat="12.976956">
                <ele>12.153809</ele>
                <time>2004-10-30T08:02:06Z</time>
            </trkpt>
            <trkpt lon="100.935152" lat="12.976871">
                <ele>13.115112</ele>
                <time>2004-10-30T08:02:15Z</time>
            </trkpt>
            <trkpt lon="100.934808" lat="12.976849">
                <ele>13.115112</ele>
                <time>2004-10-30T08:02:29Z</time>
            </trkpt>
            <trkpt lon="100.934529" lat="12.976913">
                <ele>13.115112</ele>
                <time>2004-10-30T08:02:46Z</time>
            </trkpt>
            <trkpt lon="100.934250" lat="12.977107">
                <ele>13.115112</ele>
                <time>2004-10-30T08:02:59Z</time>
            </trkpt>
            <trkpt lon="100.933607" lat="12.977514">
                <ele>12.634399</ele>
                <time>2004-10-30T08:03:18Z</time>
            </trkpt>
            <trkpt lon="100.933414" lat="12.977622">
                <ele>11.673218</ele>
                <time>2004-10-30T08:03:24Z</time>
            </trkpt>
            <trkpt lon="100.933242" lat="12.978094">
                <ele>9.750610</ele>
                <time>2004-10-30T08:03:38Z</time>
            </trkpt>
            <trkpt lon="100.933199" lat="12.978437">
                <ele>10.711792</ele>
                <time>2004-10-30T08:03:46Z</time>
            </trkpt>
            <trkpt lon="100.933263" lat="12.978759">
                <ele>11.192505</ele>
                <time>2004-10-30T08:03:53Z</time>
            </trkpt>
            <trkpt lon="100.933306" lat="12.979145">
                <ele>9.750610</ele>
                <time>2004-10-30T08:04:01Z</time>
            </trkpt>
            <trkpt lon="100.932899" lat="12.979660">
                <ele>10.711792</ele>
                <time>2004-10-30T08:04:15Z</time>
            </trkpt>
            <trkpt lon="100.932384" lat="12.979939">
                <ele>10.711792</ele>
                <time>2004-10-30T08:04:31Z</time>
            </trkpt>
            <trkpt lon="100.931697" lat="12.980003">
                <ele>10.711792</ele>
                <time>2004-10-30T08:04:47Z</time>
            </trkpt>
            <trkpt lon="100.930796" lat="12.980111">
                <ele>12.153809</ele>
                <time>2004-10-30T08:05:07Z</time>
            </trkpt>
            <trkpt lon="100.929959" lat="12.980196">
                <ele>13.595825</ele>
                <time>2004-10-30T08:05:26Z</time>
            </trkpt>
            <trkpt lon="100.929701" lat="12.980239">
                <ele>15.037720</ele>
                <time>2004-10-30T08:05:34Z</time>
            </trkpt>
            <trkpt lon="100.929701" lat="12.980154">
                <ele>14.557007</ele>
                <time>2004-10-30T08:05:39Z</time>
            </trkpt>
            <trkpt lon="100.930238" lat="12.979531">
                <ele>14.557007</ele>
                <time>2004-10-30T08:05:59Z</time>
            </trkpt>
            <trkpt lon="100.930495" lat="12.979081">
                <ele>15.037720</ele>
                <time>2004-10-30T08:06:16Z</time>
            </trkpt>
            <trkpt lon="100.930495" lat="12.979102">
                <ele>15.037720</ele>
                <time>2004-10-30T08:06:29Z</time>
            </trkpt>
            <trkpt lon="100.930517" lat="12.979124">
                <ele>6.385864</ele>
                <time>2004-10-30T08:21:25Z</time>
            </trkpt>
            <trkpt lon="100.930731" lat="12.979016">
                <ele>7.347168</ele>
                <time>2004-10-30T08:21:42Z</time>
            </trkpt>
            <trkpt lon="100.931225" lat="12.978823">
                <ele>8.789185</ele>
                <time>2004-10-30T08:21:59Z</time>
            </trkpt>
            <trkpt lon="100.931590" lat="12.978737">
                <ele>9.269897</ele>
                <time>2004-10-30T08:22:08Z</time>
            </trkpt>
            <trkpt lon="100.931954" lat="12.978802">
                <ele>8.789185</ele>
                <time>2004-10-30T08:22:16Z</time>
            </trkpt>
            <trkpt lon="100.932105" lat="12.978909">
                <ele>8.308594</ele>
                <time>2004-10-30T08:22:21Z</time>
            </trkpt>
            <trkpt lon="100.932276" lat="12.978973">
                <ele>8.789185</ele>
                <time>2004-10-30T08:22:30Z</time>
            </trkpt>
            <trkpt lon="100.932298" lat="12.978909">
                <ele>9.269897</ele>
                <time>2004-10-30T08:22:34Z</time>
            </trkpt>
            <trkpt lon="100.932341" lat="12.978158">
                <ele>10.711792</ele>
                <time>2004-10-30T08:22:52Z</time>
            </trkpt>
            <trkpt lon="100.932233" lat="12.977600">
                <ele>10.231201</ele>
                <time>2004-10-30T08:23:03Z</time>
            </trkpt>
            <trkpt lon="100.931697" lat="12.976828">
                <ele>10.711792</ele>
                <time>2004-10-30T08:23:19Z</time>
            </trkpt>
            <trkpt lon="100.931139" lat="12.975948">
                <ele>10.711792</ele>
                <time>2004-10-30T08:23:36Z</time>
            </trkpt>
            <trkpt lon="100.931010" lat="12.974617">
                <ele>10.231201</ele>
                <time>2004-10-30T08:23:59Z</time>
            </trkpt>
            <trkpt lon="100.931032" lat="12.973545">
                <ele>10.711792</ele>
                <time>2004-10-30T08:24:18Z</time>
            </trkpt>
            <trkpt lon="100.931118" lat="12.972279">
                <ele>10.711792</ele>
                <time>2004-10-30T08:24:40Z</time>
            </trkpt>
            <trkpt lon="100.930989" lat="12.970905">
                <ele>11.192505</ele>
                <time>2004-10-30T08:25:04Z</time>
            </trkpt>
            <trkpt lon="100.930882" lat="12.969747">
                <ele>11.673218</ele>
                <time>2004-10-30T08:25:25Z</time>
            </trkpt>
            <trkpt lon="100.930645" lat="12.968760">
                <ele>11.673218</ele>
                <time>2004-10-30T08:25:42Z</time>
            </trkpt>
            <trkpt lon="100.930238" lat="12.967365">
                <ele>11.192505</ele>
                <time>2004-10-30T08:26:06Z</time>
            </trkpt>
            <trkpt lon="100.929959" lat="12.966506">
                <ele>12.634399</ele>
                <time>2004-10-30T08:26:21Z</time>
            </trkpt>
            <trkpt lon="100.930045" lat="12.966335">
                <ele>12.634399</ele>
                <time>2004-10-30T08:26:26Z</time>
            </trkpt>
            <trkpt lon="100.930388" lat="12.966142">
                <ele>10.231201</ele>
                <time>2004-10-30T08:26:34Z</time>
            </trkpt>
            <trkpt lon="100.930710" lat="12.966099">
                <ele>10.711792</ele>
                <time>2004-10-30T08:26:41Z</time>
            </trkpt>
            <trkpt lon="100.930882" lat="12.966034">
                <ele>10.711792</ele>
                <time>2004-10-30T08:26:45Z</time>
            </trkpt>
            <trkpt lon="100.931053" lat="12.965949">
                <ele>10.711792</ele>
                <time>2004-10-30T08:26:49Z</time>
            </trkpt>
            <trkpt lon="100.931203" lat="12.965863">
                <ele>10.231201</ele>
                <time>2004-10-30T08:26:53Z</time>
            </trkpt>
            <trkpt lon="100.931396" lat="12.965927">
                <ele>10.231201</ele>
                <time>2004-10-30T08:26:58Z</time>
            </trkpt>
            <trkpt lon="100.931525" lat="12.966335">
                <ele>10.711792</ele>
                <time>2004-10-30T08:27:07Z</time>
            </trkpt>
            <trkpt lon="100.931525" lat="12.966442">
                <ele>10.711792</ele>
                <time>2004-10-30T08:27:09Z</time>
            </trkpt>
            <trkpt lon="100.931675" lat="12.966635">
                <ele>10.711792</ele>
                <time>2004-10-30T08:27:15Z</time>
            </trkpt>
            <trkpt lon="100.931804" lat="12.966635">
                <ele>10.711792</ele>
                <time>2004-10-30T08:27:18Z</time>
            </trkpt>
            <trkpt lon="100.931976" lat="12.966635">
                <ele>10.711792</ele>
                <time>2004-10-30T08:27:22Z</time>
            </trkpt>
            <trkpt lon="100.932105" lat="12.966657">
                <ele>12.634399</ele>
                <time>2004-10-30T08:27:25Z</time>
            </trkpt>
            <trkpt lon="100.932813" lat="12.967021">
                <ele>13.115112</ele>
                <time>2004-10-30T08:27:42Z</time>
            </trkpt>
            <trkpt lon="100.933070" lat="12.966807">
                <ele>11.673218</ele>
                <time>2004-10-30T08:27:50Z</time>
            </trkpt>
            <trkpt lon="100.933156" lat="12.966506">
                <ele>11.673218</ele>
                <time>2004-10-30T08:27:56Z</time>
            </trkpt>
            <trkpt lon="100.933220" lat="12.966313">
                <ele>11.673218</ele>
                <time>2004-10-30T08:28:00Z</time>
            </trkpt>
            <trkpt lon="100.933263" lat="12.966099">
                <ele>11.673218</ele>
                <time>2004-10-30T08:28:04Z</time>
            </trkpt>
            <trkpt lon="100.933306" lat="12.966013">
                <ele>10.711792</ele>
                <time>2004-10-30T08:28:06Z</time>
            </trkpt>
            <trkpt lon="100.933757" lat="12.965498">
                <ele>11.673218</ele>
                <time>2004-10-30T08:28:19Z</time>
            </trkpt>
            <trkpt lon="100.933886" lat="12.965412">
                <ele>12.153809</ele>
                <time>2004-10-30T08:28:22Z</time>
            </trkpt>
            <trkpt lon="100.934916" lat="12.965069">
                <ele>12.153809</ele>
                <time>2004-10-30T08:28:42Z</time>
            </trkpt>
            <trkpt lon="100.935881" lat="12.964983">
                <ele>12.153809</ele>
                <time>2004-10-30T08:29:01Z</time>
            </trkpt>
            <trkpt lon="100.936654" lat="12.965047">
                <ele>13.595825</ele>
                <time>2004-10-30T08:29:17Z</time>
            </trkpt>
            <trkpt lon="100.937726" lat="12.965069">
                <ele>15.999023</ele>
                <time>2004-10-30T08:29:40Z</time>
            </trkpt>
            <trkpt lon="100.938499" lat="12.965198">
                <ele>17.441162</ele>
                <time>2004-10-30T08:29:57Z</time>
            </trkpt>
            <trkpt lon="100.938756" lat="12.965326">
                <ele>17.441162</ele>
                <time>2004-10-30T08:30:03Z</time>
            </trkpt>
            <trkpt lon="100.939443" lat="12.965369">
                <ele>17.441162</ele>
                <time>2004-10-30T08:30:17Z</time>
            </trkpt>
            <trkpt lon="100.939894" lat="12.965262">
                <ele>16.960449</ele>
                <time>2004-10-30T08:30:26Z</time>
            </trkpt>
            <trkpt lon="100.940859" lat="12.965283">
                <ele>18.402344</ele>
                <time>2004-10-30T08:30:47Z</time>
            </trkpt>
            <trkpt lon="100.941889" lat="12.965326">
                <ele>16.960449</ele>
                <time>2004-10-30T08:31:09Z</time>
            </trkpt>
            <trkpt lon="100.942512" lat="12.965262">
                <ele>15.999023</ele>
                <time>2004-10-30T08:31:22Z</time>
            </trkpt>
            <trkpt lon="100.942919" lat="12.965133">
                <ele>17.441162</ele>
                <time>2004-10-30T08:31:32Z</time>
            </trkpt>
            <trkpt lon="100.943091" lat="12.965090">
                <ele>17.921753</ele>
                <time>2004-10-30T08:31:36Z</time>
            </trkpt>
            <trkpt lon="100.944035" lat="12.965047">
                <ele>18.883057</ele>
                <time>2004-10-30T08:31:58Z</time>
            </trkpt>
            <trkpt lon="100.944164" lat="12.965026">
                <ele>20.805664</ele>
                <time>2004-10-30T08:32:10Z</time>
            </trkpt>
            <trkpt lon="100.944185" lat="12.965026">
                <ele>21.286377</ele>
                <time>2004-10-30T08:32:18Z</time>
            </trkpt>
            <trkpt lon="100.944443" lat="12.965047">
                <ele>20.805664</ele>
                <time>2004-10-30T08:32:28Z</time>
            </trkpt>
            <trkpt lon="100.944657" lat="12.965090">
                <ele>20.805664</ele>
                <time>2004-10-30T08:32:33Z</time>
            </trkpt>
            <trkpt lon="100.945601" lat="12.965498">
                <ele>22.247559</ele>
                <time>2004-10-30T08:32:53Z</time>
            </trkpt>
            <trkpt lon="100.946739" lat="12.965841">
                <ele>23.208984</ele>
                <time>2004-10-30T08:33:13Z</time>
            </trkpt>
            <trkpt lon="100.947833" lat="12.965991">
                <ele>24.651001</ele>
                <time>2004-10-30T08:33:33Z</time>
            </trkpt>
            <trkpt lon="100.948756" lat="12.965991">
                <ele>24.651001</ele>
                <time>2004-10-30T08:33:50Z</time>
            </trkpt>
            <trkpt lon="100.949485" lat="12.965949">
                <ele>23.689575</ele>
                <time>2004-10-30T08:34:05Z</time>
            </trkpt>
            <trkpt lon="100.949829" lat="12.965841">
                <ele>24.170288</ele>
                <time>2004-10-30T08:34:13Z</time>
            </trkpt>
            <trkpt lon="100.950773" lat="12.965305">
                <ele>23.208984</ele>
                <time>2004-10-30T08:34:38Z</time>
            </trkpt>
            <trkpt lon="100.951395" lat="12.964962">
                <ele>25.612305</ele>
                <time>2004-10-30T08:34:53Z</time>
            </trkpt>
            <trkpt lon="100.951481" lat="12.964854">
                <ele>25.612305</ele>
                <time>2004-10-30T08:34:56Z</time>
            </trkpt>
            <trkpt lon="100.951459" lat="12.964339">
                <ele>27.054321</ele>
                <time>2004-10-30T08:35:08Z</time>
            </trkpt>
            <trkpt lon="100.951459" lat="12.963545">
                <ele>28.976929</ele>
                <time>2004-10-30T08:35:28Z</time>
            </trkpt>
            <trkpt lon="100.951481" lat="12.962794">
                <ele>30.899536</ele>
                <time>2004-10-30T08:35:46Z</time>
            </trkpt>
            <trkpt lon="100.951438" lat="12.961936">
                <ele>32.822266</ele>
                <time>2004-10-30T08:36:06Z</time>
            </trkpt>
            <trkpt lon="100.951395" lat="12.960949">
                <ele>35.225464</ele>
                <time>2004-10-30T08:36:30Z</time>
            </trkpt>
            <trkpt lon="100.951374" lat="12.960777">
                <ele>35.225464</ele>
                <time>2004-10-30T08:36:34Z</time>
            </trkpt>
            <trkpt lon="100.951374" lat="12.960691">
                <ele>35.225464</ele>
                <time>2004-10-30T08:36:36Z</time>
            </trkpt>
            <trkpt lon="100.951331" lat="12.959704">
                <ele>35.706055</ele>
                <time>2004-10-30T08:36:57Z</time>
            </trkpt>
            <trkpt lon="100.951352" lat="12.958782">
                <ele>37.628662</ele>
                <time>2004-10-30T08:37:17Z</time>
            </trkpt>
            <trkpt lon="100.951245" lat="12.957988">
                <ele>39.070679</ele>
                <time>2004-10-30T08:37:35Z</time>
            </trkpt>
            <trkpt lon="100.951052" lat="12.957258">
                <ele>40.512817</ele>
                <time>2004-10-30T08:37:51Z</time>
            </trkpt>
            <trkpt lon="100.950902" lat="12.956529">
                <ele>40.993408</ele>
                <time>2004-10-30T08:38:07Z</time>
            </trkpt>
            <trkpt lon="100.950580" lat="12.955756">
                <ele>42.435425</ele>
                <time>2004-10-30T08:38:24Z</time>
            </trkpt>
            <trkpt lon="100.950451" lat="12.955542">
                <ele>42.916016</ele>
                <time>2004-10-30T08:38:29Z</time>
            </trkpt>
            <trkpt lon="100.950258" lat="12.955134">
                <ele>42.916016</ele>
                <time>2004-10-30T08:38:38Z</time>
            </trkpt>
            <trkpt lon="100.950322" lat="12.954855">
                <ele>43.396606</ele>
                <time>2004-10-30T08:38:44Z</time>
            </trkpt>
            <trkpt lon="100.951202" lat="12.953954">
                <ele>41.954712</ele>
                <time>2004-10-30T08:39:07Z</time>
            </trkpt>
            <trkpt lon="100.951889" lat="12.953203">
                <ele>41.954712</ele>
                <time>2004-10-30T08:39:25Z</time>
            </trkpt>
            <trkpt lon="100.951974" lat="12.953053">
                <ele>42.435425</ele>
                <time>2004-10-30T08:39:28Z</time>
            </trkpt>
            <trkpt lon="100.952017" lat="12.952774">
                <ele>42.916016</ele>
                <time>2004-10-30T08:39:33Z</time>
            </trkpt>
            <trkpt lon="100.951953" lat="12.952001">
                <ele>43.877319</ele>
                <time>2004-10-30T08:39:47Z</time>
            </trkpt>
            <trkpt lon="100.952082" lat="12.951894">
                <ele>43.877319</ele>
                <time>2004-10-30T08:39:53Z</time>
            </trkpt>
            <trkpt lon="100.952210" lat="12.951894">
                <ele>43.877319</ele>
                <time>2004-10-30T08:39:56Z</time>
            </trkpt>
            <trkpt lon="100.952446" lat="12.951980">
                <ele>43.877319</ele>
                <time>2004-10-30T08:40:02Z</time>
            </trkpt>
            <trkpt lon="100.952532" lat="12.952001">
                <ele>43.877319</ele>
                <time>2004-10-30T08:40:04Z</time>
            </trkpt>
            <trkpt lon="100.953004" lat="12.952344">
                <ele>43.396606</ele>
                <time>2004-10-30T08:40:19Z</time>
            </trkpt>
            <trkpt lon="100.953412" lat="12.952709">
                <ele>41.954712</ele>
                <time>2004-10-30T08:40:30Z</time>
            </trkpt>
            <trkpt lon="100.953670" lat="12.952816">
                <ele>41.954712</ele>
                <time>2004-10-30T08:40:36Z</time>
            </trkpt>
            <trkpt lon="100.954399" lat="12.952688">
                <ele>40.032104</ele>
                <time>2004-10-30T08:40:52Z</time>
            </trkpt>
            <trkpt lon="100.954700" lat="12.952538">
                <ele>39.551270</ele>
                <time>2004-10-30T08:41:03Z</time>
            </trkpt>
            <trkpt lon="100.954914" lat="12.952538">
                <ele>39.551270</ele>
                <time>2004-10-30T08:41:12Z</time>
            </trkpt>
            <trkpt lon="100.954978" lat="12.952538">
                <ele>39.070679</ele>
                <time>2004-10-30T08:41:14Z</time>
            </trkpt>
            <trkpt lon="100.955343" lat="12.952452">
                <ele>39.551270</ele>
                <time>2004-10-30T08:41:22Z</time>
            </trkpt>
            <trkpt lon="100.955601" lat="12.952173">
                <ele>39.551270</ele>
                <time>2004-10-30T08:41:33Z</time>
            </trkpt>
            <trkpt lon="100.955772" lat="12.951658">
                <ele>40.032104</ele>
                <time>2004-10-30T08:41:49Z</time>
            </trkpt>
            <trkpt lon="100.956030" lat="12.950907">
                <ele>43.396606</ele>
                <time>2004-10-30T08:42:10Z</time>
            </trkpt>
            <trkpt lon="100.956159" lat="12.950585">
                <ele>45.319214</ele>
                <time>2004-10-30T08:42:22Z</time>
            </trkpt>
            <trkpt lon="100.956266" lat="12.950542">
                <ele>46.280640</ele>
                <time>2004-10-30T08:42:31Z</time>
            </trkpt>
            <trkpt lon="100.956330" lat="12.950392">
                <ele>46.761230</ele>
                <time>2004-10-30T08:42:39Z</time>
            </trkpt>
            <trkpt lon="100.956395" lat="12.949920">
                <ele>45.799927</ele>
                <time>2004-10-30T08:42:54Z</time>
            </trkpt>
            <trkpt lon="100.956523" lat="12.949512">
                <ele>47.722534</ele>
                <time>2004-10-30T08:43:09Z</time>
            </trkpt>
            <trkpt lon="100.956738" lat="12.949040">
                <ele>48.683960</ele>
                <time>2004-10-30T08:43:25Z</time>
            </trkpt>
            <trkpt lon="100.957232" lat="12.948353">
                <ele>50.606567</ele>
                <time>2004-10-30T08:43:47Z</time>
            </trkpt>
            <trkpt lon="100.957510" lat="12.947989">
                <ele>50.606567</ele>
                <time>2004-10-30T08:43:58Z</time>
            </trkpt>
            <trkpt lon="100.957768" lat="12.947688">
                <ele>52.529175</ele>
                <time>2004-10-30T08:44:07Z</time>
            </trkpt>
            <trkpt lon="100.958304" lat="12.946959">
                <ele>51.567871</ele>
                <time>2004-10-30T08:44:27Z</time>
            </trkpt>
            <trkpt lon="100.958734" lat="12.946508">
                <ele>48.683960</ele>
                <time>2004-10-30T08:44:40Z</time>
            </trkpt>
            <trkpt lon="100.958948" lat="12.946551">
                <ele>48.203369</ele>
                <time>2004-10-30T08:44:45Z</time>
            </trkpt>
            <trkpt lon="100.959141" lat="12.946637">
                <ele>49.164551</ele>
                <time>2004-10-30T08:44:50Z</time>
            </trkpt>
            <trkpt lon="100.959420" lat="12.947087">
                <ele>50.125977</ele>
                <time>2004-10-30T08:45:01Z</time>
            </trkpt>
            <trkpt lon="100.959721" lat="12.947152">
                <ele>50.606567</ele>
                <time>2004-10-30T08:45:08Z</time>
            </trkpt>
            <trkpt lon="100.960279" lat="12.947001">
                <ele>53.490479</ele>
                <time>2004-10-30T08:45:22Z</time>
            </trkpt>
            <trkpt lon="100.960944" lat="12.947173">
                <ele>56.374512</ele>
                <time>2004-10-30T08:45:40Z</time>
            </trkpt>
            <trkpt lon="100.961459" lat="12.947452">
                <ele>58.297119</ele>
                <time>2004-10-30T08:45:57Z</time>
            </trkpt>
            <trkpt lon="100.961802" lat="12.947903">
                <ele>59.739136</ele>
                <time>2004-10-30T08:46:14Z</time>
            </trkpt>
            <trkpt lon="100.962059" lat="12.948503">
                <ele>59.258423</ele>
                <time>2004-10-30T08:46:32Z</time>
            </trkpt>
            <trkpt lon="100.962145" lat="12.949061">
                <ele>59.258423</ele>
                <time>2004-10-30T08:46:44Z</time>
            </trkpt>
            <trkpt lon="100.962231" lat="12.949233">
                <ele>59.258423</ele>
                <time>2004-10-30T08:46:48Z</time>
            </trkpt>
            <trkpt lon="100.962424" lat="12.949448">
                <ele>60.219727</ele>
                <time>2004-10-30T08:46:54Z</time>
            </trkpt>
            <trkpt lon="100.962510" lat="12.949619">
                <ele>60.219727</ele>
                <time>2004-10-30T08:46:58Z</time>
            </trkpt>
            <trkpt lon="100.962682" lat="12.950113">
                <ele>60.219727</ele>
                <time>2004-10-30T08:47:08Z</time>
            </trkpt>
            <trkpt lon="100.962832" lat="12.950263">
                <ele>60.219727</ele>
                <time>2004-10-30T08:47:12Z</time>
            </trkpt>
            <trkpt lon="100.963111" lat="12.950435">
                <ele>60.700317</ele>
                <time>2004-10-30T08:47:18Z</time>
            </trkpt>
            <trkpt lon="100.963347" lat="12.950478">
                <ele>61.181030</ele>
                <time>2004-10-30T08:47:23Z</time>
            </trkpt>
            <trkpt lon="100.963991" lat="12.950435">
                <ele>62.622925</ele>
                <time>2004-10-30T08:47:37Z</time>
            </trkpt>
            <trkpt lon="100.964248" lat="12.950478">
                <ele>63.103638</ele>
                <time>2004-10-30T08:47:43Z</time>
            </trkpt>
            <trkpt lon="100.964313" lat="12.950671">
                <ele>62.622925</ele>
                <time>2004-10-30T08:47:48Z</time>
            </trkpt>
            <trkpt lon="100.964291" lat="12.950757">
                <ele>62.142334</ele>
                <time>2004-10-30T08:47:50Z</time>
            </trkpt>
            <trkpt lon="100.964420" lat="12.951615">
                <ele>59.258423</ele>
                <time>2004-10-30T08:48:06Z</time>
            </trkpt>
            <trkpt lon="100.964570" lat="12.952087">
                <ele>59.258423</ele>
                <time>2004-10-30T08:48:15Z</time>
            </trkpt>
            <trkpt lon="100.964870" lat="12.952216">
                <ele>59.258423</ele>
                <time>2004-10-30T08:48:21Z</time>
            </trkpt>
            <trkpt lon="100.965643" lat="12.952452">
                <ele>59.258423</ele>
                <time>2004-10-30T08:48:37Z</time>
            </trkpt>
            <trkpt lon="100.966330" lat="12.953053">
                <ele>57.816528</ele>
                <time>2004-10-30T08:48:53Z</time>
            </trkpt>
            <trkpt lon="100.967124" lat="12.953739">
                <ele>56.855103</ele>
                <time>2004-10-30T08:49:11Z</time>
            </trkpt>
            <trkpt lon="100.967617" lat="12.954061">
                <ele>56.855103</ele>
                <time>2004-10-30T08:49:22Z</time>
            </trkpt>
            <trkpt lon="100.967982" lat="12.954061">
                <ele>55.413086</ele>
                <time>2004-10-30T08:49:28Z</time>
            </trkpt>
            <trkpt lon="100.969098" lat="12.953739">
                <ele>50.125977</ele>
                <time>2004-10-30T08:49:46Z</time>
            </trkpt>
            <trkpt lon="100.970471" lat="12.953503">
                <ele>49.164551</ele>
                <time>2004-10-30T08:50:08Z</time>
            </trkpt>
            <trkpt lon="100.971243" lat="12.953310">
                <ele>49.645264</ele>
                <time>2004-10-30T08:50:25Z</time>
            </trkpt>
            <trkpt lon="100.971437" lat="12.953289">
                <ele>48.683960</ele>
                <time>2004-10-30T08:50:35Z</time>
            </trkpt>
            <trkpt lon="100.971522" lat="12.953010">
                <ele>48.683960</ele>
                <time>2004-10-30T08:50:46Z</time>
            </trkpt>
            <trkpt lon="100.971758" lat="12.952366">
                <ele>48.203369</ele>
                <time>2004-10-30T08:51:03Z</time>
            </trkpt>
            <trkpt lon="100.972080" lat="12.952108">
                <ele>48.203369</ele>
                <time>2004-10-30T08:51:14Z</time>
            </trkpt>
            <trkpt lon="100.972295" lat="12.952130">
                <ele>47.722534</ele>
                <time>2004-10-30T08:51:19Z</time>
            </trkpt>
            <trkpt lon="100.972595" lat="12.951980">
                <ele>47.241821</ele>
                <time>2004-10-30T08:51:26Z</time>
            </trkpt>
            <trkpt lon="100.972853" lat="12.951701">
                <ele>46.280640</ele>
                <time>2004-10-30T08:51:33Z</time>
            </trkpt>
            <trkpt lon="100.972960" lat="12.951550">
                <ele>46.280640</ele>
                <time>2004-10-30T08:51:37Z</time>
            </trkpt>
            <trkpt lon="100.973024" lat="12.951357">
                <ele>46.761230</ele>
                <time>2004-10-30T08:51:47Z</time>
            </trkpt>
            <trkpt lon="100.973046" lat="12.951357">
                <ele>46.761230</ele>
                <time>2004-10-30T08:51:48Z</time>
            </trkpt>
            <trkpt lon="100.973132" lat="12.951379">
                <ele>47.241821</ele>
                <time>2004-10-30T08:51:54Z</time>
            </trkpt>
            <trkpt lon="100.973625" lat="12.951443">
                <ele>48.203369</ele>
                <time>2004-10-30T08:52:07Z</time>
            </trkpt>
            <trkpt lon="100.974011" lat="12.951229">
                <ele>47.241821</ele>
                <time>2004-10-30T08:52:17Z</time>
            </trkpt>
            <trkpt lon="100.974333" lat="12.950413">
                <ele>46.280640</ele>
                <time>2004-10-30T08:52:33Z</time>
            </trkpt>
            <trkpt lon="100.974441" lat="12.949491">
                <ele>47.722534</ele>
                <time>2004-10-30T08:52:50Z</time>
            </trkpt>
            <trkpt lon="100.974483" lat="12.948461">
                <ele>49.164551</ele>
                <time>2004-10-30T08:53:09Z</time>
            </trkpt>
            <trkpt lon="100.974526" lat="12.947409">
                <ele>48.683960</ele>
                <time>2004-10-30T08:53:28Z</time>
            </trkpt>
            <trkpt lon="100.974398" lat="12.946444">
                <ele>48.203369</ele>
                <time>2004-10-30T08:53:44Z</time>
            </trkpt>
            <trkpt lon="100.973775" lat="12.945414">
                <ele>49.645264</ele>
                <time>2004-10-30T08:54:02Z</time>
            </trkpt>
            <trkpt lon="100.972981" lat="12.944212">
                <ele>50.606567</ele>
                <time>2004-10-30T08:54:23Z</time>
            </trkpt>
            <trkpt lon="100.972703" lat="12.943718">
                <ele>50.606567</ele>
                <time>2004-10-30T08:54:32Z</time>
            </trkpt>
            <trkpt lon="100.972703" lat="12.943547">
                <ele>50.125977</ele>
                <time>2004-10-30T08:54:36Z</time>
            </trkpt>
            <trkpt lon="100.972681" lat="12.943268">
                <ele>49.645264</ele>
                <time>2004-10-30T08:54:42Z</time>
            </trkpt>
            <trkpt lon="100.972767" lat="12.942410">
                <ele>49.164551</ele>
                <time>2004-10-30T08:54:58Z</time>
            </trkpt>
            <trkpt lon="100.972960" lat="12.941144">
                <ele>48.683960</ele>
                <time>2004-10-30T08:55:20Z</time>
            </trkpt>
            <trkpt lon="100.973132" lat="12.939749">
                <ele>48.203369</ele>
                <time>2004-10-30T08:55:43Z</time>
            </trkpt>
            <trkpt lon="100.973153" lat="12.939620">
                <ele>48.683960</ele>
                <time>2004-10-30T08:55:46Z</time>
            </trkpt>
            <trkpt lon="100.973432" lat="12.939491">
                <ele>48.203369</ele>
                <time>2004-10-30T08:55:54Z</time>
            </trkpt>
            <trkpt lon="100.973990" lat="12.939706">
                <ele>48.683960</ele>
                <time>2004-10-30T08:56:07Z</time>
            </trkpt>
            <trkpt lon="100.974076" lat="12.939727">
                <ele>48.683960</ele>
                <time>2004-10-30T08:56:09Z</time>
            </trkpt>
            <trkpt lon="100.974312" lat="12.939491">
                <ele>49.645264</ele>
                <time>2004-10-30T08:56:17Z</time>
            </trkpt>
            <trkpt lon="100.974290" lat="12.938719">
                <ele>50.125977</ele>
                <time>2004-10-30T08:56:33Z</time>
            </trkpt>
            <trkpt lon="100.974054" lat="12.937903">
                <ele>51.567871</ele>
                <time>2004-10-30T08:56:49Z</time>
            </trkpt>
            <trkpt lon="100.974140" lat="12.937582">
                <ele>51.567871</ele>
                <time>2004-10-30T08:56:57Z</time>
            </trkpt>
            <trkpt lon="100.974805" lat="12.937238">
                <ele>52.048584</ele>
                <time>2004-10-30T08:57:14Z</time>
            </trkpt>
            <trkpt lon="100.975535" lat="12.936959">
                <ele>52.529175</ele>
                <time>2004-10-30T08:57:33Z</time>
            </trkpt>
            <trkpt lon="100.976222" lat="12.936659">
                <ele>54.451782</ele>
                <time>2004-10-30T08:57:53Z</time>
            </trkpt>
            <trkpt lon="100.976801" lat="12.936573">
                <ele>54.932373</ele>
                <time>2004-10-30T08:58:08Z</time>
            </trkpt>
            <trkpt lon="100.977702" lat="12.936316">
                <ele>55.413086</ele>
                <time>2004-10-30T08:58:30Z</time>
            </trkpt>
            <trkpt lon="100.977852" lat="12.936251">
                <ele>54.451782</ele>
                <time>2004-10-30T08:58:34Z</time>
            </trkpt>
            <trkpt lon="100.978625" lat="12.935822">
                <ele>54.932373</ele>
                <time>2004-10-30T08:58:54Z</time>
            </trkpt>
            <trkpt lon="100.979526" lat="12.935307">
                <ele>57.335815</ele>
                <time>2004-10-30T08:59:19Z</time>
            </trkpt>
            <trkpt lon="100.980170" lat="12.934899">
                <ele>59.739136</ele>
                <time>2004-10-30T08:59:38Z</time>
            </trkpt>
            <trkpt lon="100.980921" lat="12.934513">
                <ele>58.777710</ele>
                <time>2004-10-30T08:59:59Z</time>
            </trkpt>
            <trkpt lon="100.981843" lat="12.934020">
                <ele>57.335815</ele>
                <time>2004-10-30T09:00:19Z</time>
            </trkpt>
            <trkpt lon="100.982873" lat="12.933354">
                <ele>56.855103</ele>
                <time>2004-10-30T09:00:40Z</time>
            </trkpt>
            <trkpt lon="100.983603" lat="12.932904">
                <ele>58.777710</ele>
                <time>2004-10-30T09:00:58Z</time>
            </trkpt>
            <trkpt lon="100.984247" lat="12.932453">
                <ele>59.739136</ele>
                <time>2004-10-30T09:01:16Z</time>
            </trkpt>
            <trkpt lon="100.984375" lat="12.932346">
                <ele>60.219727</ele>
                <time>2004-10-30T09:01:20Z</time>
            </trkpt>
            <trkpt lon="100.984955" lat="12.931831">
                <ele>62.622925</ele>
                <time>2004-10-30T09:01:39Z</time>
            </trkpt>
            <trkpt lon="100.985727" lat="12.931359">
                <ele>64.545654</ele>
                <time>2004-10-30T09:02:00Z</time>
            </trkpt>
            <trkpt lon="100.986521" lat="12.931015">
                <ele>65.507080</ele>
                <time>2004-10-30T09:02:20Z</time>
            </trkpt>
            <trkpt lon="100.987294" lat="12.930672">
                <ele>66.468262</ele>
                <time>2004-10-30T09:02:39Z</time>
            </trkpt>
            <trkpt lon="100.988195" lat="12.930264">
                <ele>66.948975</ele>
                <time>2004-10-30T09:03:01Z</time>
            </trkpt>
            <trkpt lon="100.988324" lat="12.930200">
                <ele>67.429688</ele>
                <time>2004-10-30T09:03:04Z</time>
            </trkpt>
            <trkpt lon="100.988903" lat="12.929921">
                <ele>67.429688</ele>
                <time>2004-10-30T09:03:19Z</time>
            </trkpt>
            <trkpt lon="100.989311" lat="12.929492">
                <ele>70.313477</ele>
                <time>2004-10-30T09:03:35Z</time>
            </trkpt>
            <trkpt lon="100.989804" lat="12.928805">
                <ele>72.236206</ele>
                <time>2004-10-30T09:03:56Z</time>
            </trkpt>
            <trkpt lon="100.990534" lat="12.928205">
                <ele>73.197632</ele>
                <time>2004-10-30T09:04:19Z</time>
            </trkpt>
            <trkpt lon="100.991306" lat="12.927690">
                <ele>74.158813</ele>
                <time>2004-10-30T09:04:41Z</time>
            </trkpt>
            <trkpt lon="100.992100" lat="12.927217">
                <ele>74.639526</ele>
                <time>2004-10-30T09:05:04Z</time>
            </trkpt>
            <trkpt lon="100.992851" lat="12.926788">
                <ele>74.158813</ele>
                <time>2004-10-30T09:05:25Z</time>
            </trkpt>
            <trkpt lon="100.993602" lat="12.926381">
                <ele>75.120239</ele>
                <time>2004-10-30T09:05:46Z</time>
            </trkpt>
            <trkpt lon="100.994332" lat="12.926059">
                <ele>77.523438</ele>
                <time>2004-10-30T09:06:05Z</time>
            </trkpt>
            <trkpt lon="100.995212" lat="12.925630">
                <ele>79.446045</ele>
                <time>2004-10-30T09:06:28Z</time>
            </trkpt>
            <trkpt lon="100.995812" lat="12.925222">
                <ele>82.810791</ele>
                <time>2004-10-30T09:06:47Z</time>
            </trkpt>
            <trkpt lon="100.996499" lat="12.924728">
                <ele>83.771973</ele>
                <time>2004-10-30T09:07:07Z</time>
            </trkpt>
            <trkpt lon="100.997186" lat="12.924278">
                <ele>84.733398</ele>
                <time>2004-10-30T09:07:27Z</time>
            </trkpt>
            <trkpt lon="100.997894" lat="12.923892">
                <ele>86.175293</ele>
                <time>2004-10-30T09:07:47Z</time>
            </trkpt>
            <trkpt lon="100.998602" lat="12.923763">
                <ele>89.059326</ele>
                <time>2004-10-30T09:08:06Z</time>
            </trkpt>
            <trkpt lon="100.999181" lat="12.923720">
                <ele>91.462524</ele>
                <time>2004-10-30T09:08:23Z</time>
            </trkpt>
            <trkpt lon="100.999739" lat="12.923634">
                <ele>92.904541</ele>
                <time>2004-10-30T09:08:40Z</time>
            </trkpt>
            <trkpt lon="101.000190" lat="12.923355">
                <ele>93.385132</ele>
                <time>2004-10-30T09:08:56Z</time>
            </trkpt>
            <trkpt lon="101.000726" lat="12.922883">
                <ele>94.827148</ele>
                <time>2004-10-30T09:09:16Z</time>
            </trkpt>
            <trkpt lon="101.001155" lat="12.922390">
                <ele>95.307739</ele>
                <time>2004-10-30T09:09:32Z</time>
            </trkpt>
            <trkpt lon="101.001284" lat="12.922261">
                <ele>95.307739</ele>
                <time>2004-10-30T09:09:36Z</time>
            </trkpt>
            <trkpt lon="101.001370" lat="12.922175">
                <ele>95.788452</ele>
                <time>2004-10-30T09:09:39Z</time>
            </trkpt>
            <trkpt lon="101.001649" lat="12.922003">
                <ele>95.307739</ele>
                <time>2004-10-30T09:09:46Z</time>
            </trkpt>
            <trkpt lon="101.002271" lat="12.921724">
                <ele>94.827148</ele>
                <time>2004-10-30T09:10:01Z</time>
            </trkpt>
            <trkpt lon="101.002808" lat="12.921445">
                <ele>95.788452</ele>
                <time>2004-10-30T09:10:18Z</time>
            </trkpt>
            <trkpt lon="101.003408" lat="12.921102">
                <ele>96.749878</ele>
                <time>2004-10-30T09:10:36Z</time>
            </trkpt>
            <trkpt lon="101.003838" lat="12.920694">
                <ele>97.711182</ele>
                <time>2004-10-30T09:10:53Z</time>
            </trkpt>
            <trkpt lon="101.003752" lat="12.920544">
                <ele>97.230469</ele>
                <time>2004-10-30T09:10:57Z</time>
            </trkpt>
            <trkpt lon="101.003687" lat="12.920458">
                <ele>96.749878</ele>
                <time>2004-10-30T09:10:59Z</time>
            </trkpt>
            <trkpt lon="101.003044" lat="12.919986">
                <ele>93.865845</ele>
                <time>2004-10-30T09:11:11Z</time>
            </trkpt>
            <trkpt lon="101.001906" lat="12.919171">
                <ele>88.578735</ele>
                <time>2004-10-30T09:11:28Z</time>
            </trkpt>
            <trkpt lon="101.001070" lat="12.918549">
                <ele>86.175293</ele>
                <time>2004-10-30T09:11:41Z</time>
            </trkpt>
            <trkpt lon="101.000512" lat="12.917583">
                <ele>87.136597</ele>
                <time>2004-10-30T09:11:57Z</time>
            </trkpt>
            <trkpt lon="100.999975" lat="12.917068">
                <ele>87.617188</ele>
                <time>2004-10-30T09:12:10Z</time>
            </trkpt>
            <trkpt lon="100.998924" lat="12.916725">
                <ele>84.733398</ele>
                <time>2004-10-30T09:12:27Z</time>
            </trkpt>
            <trkpt lon="100.998216" lat="12.916553">
                <ele>83.291382</ele>
                <time>2004-10-30T09:12:37Z</time>
            </trkpt>
            <trkpt lon="100.997722" lat="12.916832">
                <ele>82.330078</ele>
                <time>2004-10-30T09:12:46Z</time>
            </trkpt>
            <trkpt lon="100.997679" lat="12.916875">
                <ele>82.330078</ele>
                <time>2004-10-30T09:12:47Z</time>
            </trkpt>
            <trkpt lon="100.997357" lat="12.917819">
                <ele>81.849365</ele>
                <time>2004-10-30T09:13:04Z</time>
            </trkpt>
            <trkpt lon="100.997078" lat="12.917948">
                <ele>82.810791</ele>
                <time>2004-10-30T09:13:11Z</time>
            </trkpt>
            <trkpt lon="100.996027" lat="12.918098">
                <ele>83.771973</ele>
                <time>2004-10-30T09:13:32Z</time>
            </trkpt>
            <trkpt lon="100.995297" lat="12.918248">
                <ele>85.213989</ele>
                <time>2004-10-30T09:13:46Z</time>
            </trkpt>
            <trkpt lon="100.995040" lat="12.918077">
                <ele>83.771973</ele>
                <time>2004-10-30T09:13:53Z</time>
            </trkpt>
            <trkpt lon="100.994804" lat="12.918098">
                <ele>83.771973</ele>
                <time>2004-10-30T09:13:58Z</time>
            </trkpt>
            <trkpt lon="100.994203" lat="12.918291">
                <ele>84.733398</ele>
                <time>2004-10-30T09:14:16Z</time>
            </trkpt>
            <trkpt lon="100.994225" lat="12.918291">
                <ele>85.213989</ele>
                <time>2004-10-30T09:14:53Z</time>
            </trkpt>
            <trkpt lon="100.994182" lat="12.918291">
                <ele>82.810791</ele>
                <time>2004-10-30T09:16:19Z</time>
            </trkpt>
            <trkpt lon="100.993967" lat="12.918119">
                <ele>83.771973</ele>
                <time>2004-10-30T09:16:35Z</time>
            </trkpt>
            <trkpt lon="100.993924" lat="12.917862">
                <ele>84.252686</ele>
                <time>2004-10-30T09:16:49Z</time>
            </trkpt>
        </trkseg>
    </trk>
</gpx>